Observation data for Endee on 11/19/2019      Previous  Date       Current Mesonet Observations  Soil Data  Daily Summary Page  Observations in Plain Language
KEN1 190600Z 18004KT 06/M01 A3001 RMK A01 T00621014  RH  058%=      5-min Rain = 0
KEN1 190601Z 18004KT 07/M01 A3001 RMK A01 T00651013  RH  057%=      5-min Rain = 0
KEN1 190602Z 18004KT 07/M01 A3001 RMK A01 T00671013  RH  056%=      5-min Rain = 0
KEN1 190603Z 18004KT 07/M01 A3001 RMK A01 T00681013  RH  056%=      5-min Rain = 0
KEN1 190604Z 17004KT 07/M01 A3001 RMK A01 T00711013  RH  055%=      5-min Rain = 0
KEN1 190605Z 17004KT 07/M01 A3001 RMK A01 T00741012  RH  054%=      5-min Rain = 0
KEN1 190606Z 16003KT 08/M01 A3001 RMK A01 T00781012  RH  053%=      5-min Rain = 0
KEN1 190607Z 17003KT 08/M01 A3001 RMK A01 T00811012  RH  052%=      5-min Rain = 0
KEN1 190608Z 17003KT 08/M01 A3001 RMK A01 T00821012  RH  051%=      5-min Rain = 0
KEN1 190609Z 16004KT 08/M01 A3001 RMK A01 T00831013  RH  051%=      5-min Rain = 0
KEN1 190610Z 16004KT 08/M01 A3001 RMK A01 T00831013  RH  051%=      5-min Rain = 0
KEN1 190611Z 15004KT 08/M01 A3001 RMK A01 T00831013  RH  051%=      5-min Rain = 0
KEN1 190612Z 15005KT 08/M01 A3001 RMK A01 T00811014  RH  051%=      5-min Rain = 0
KEN1 190613Z 14005KT 08/M01 A3001 RMK A01 T00801014  RH  051%=      5-min Rain = 0
KEN1 190614Z 15005KT 08/M01 A3001 RMK A01 T00801014  RH  052%=      5-min Rain = 0
KEN1 190615Z 15006KT 08/M01 A3001 RMK A01 T00801014  RH  052%=      5-min Rain = 0
KEN1 190616Z 15006KT 08/M01 A3001 RMK A01 T00791014  RH  052%=      5-min Rain = 0
KEN1 190617Z 15007KT 08/M01 A3001 RMK A01 T00781014  RH  052%=      5-min Rain = 0
KEN1 190618Z 14007KT 08/M01 A3001 RMK A01 T00771014  RH  052%=      5-min Rain = 0
KEN1 190619Z 14007KT 08/M02 A3001 RMK A01 T00761015  RH  053%=      5-min Rain = 0
KEN1 190620Z 14007KT 07/M02 A3001 RMK A01 T00731015  RH  054%=      5-min Rain = 0
KEN1 190621Z 14007KT 07/M01 A3001 RMK A01 T00721014  RH  054%=      5-min Rain = 0
KEN1 190622Z 14007KT 07/M01 A3001 RMK A01 T00711014  RH  055%=      5-min Rain = 0
KEN1 190623Z 14007KT 07/M01 A3001 RMK A01 T00711014  RH  055%=      5-min Rain = 0
KEN1 190624Z 14007KT 07/M01 A3001 RMK A01 T00701014  RH  055%=      5-min Rain = 0
KEN1 190625Z 14006KT 07/M01 A3001 RMK A01 T00691014  RH  055%=      5-min Rain = 0
KEN1 190626Z 14006KT 07/M01 A3001 RMK A01 T00691014  RH  055%=      5-min Rain = 0
KEN1 190627Z 14007KT 07/M01 A30 RMK A01 T00691014  RH  055%=      5-min Rain = 0
KEN1 190628Z 14007KT 07/M02 A30 RMK A01 T00681015  RH  055%=      5-min Rain = 0
KEN1 190629Z 14008KT 07/M02 A30 RMK A01 T00671015  RH  056%=      5-min Rain = 0
KEN1 190630Z 14008KT 07/M02 A30 RMK A01 T00661015  RH  056%=      5-min Rain = 0
KEN1 190631Z 14008KT 07/M02 A30 RMK A01 T00651015  RH  057%=      5-min Rain = 0
KEN1 190632Z 14008KT 06/M02 A30 RMK A01 T00641015  RH  057%=      5-min Rain = 0
KEN1 190633Z 15009KT 06/M02 A30 RMK A01 T00641015  RH  057%=      5-min Rain = 0
KEN1 190634Z 14009KT 07/M01 A30 RMK A01 T00651014  RH  057%=      5-min Rain = 0
KEN1 190635Z 14009KT 07/M01 A30 RMK A01 T00661014  RH  057%=      5-min Rain = 0
KEN1 190636Z 15009KT 07/M01 A30 RMK A01 T00671014  RH  056%=      5-min Rain = 0
KEN1 190637Z 15009KT 07/M01 A30 RMK A01 T00671014  RH  056%=      5-min Rain = 0
KEN1 190638Z 15008KT 07/M01 A30 RMK A01 T00671014  RH  056%=      5-min Rain = 0
KEN1 190639Z 15008KT 07/M01 A30 RMK A01 T00681014  RH  056%=      5-min Rain = 0
KEN1 190640Z 14009KT 07/M01 A30 RMK A01 T00671014  RH  056%=      5-min Rain = 0
KEN1 190641Z 14008KT 07/M01 A30 RMK A01 T00661014  RH  057%=      5-min Rain = 0
KEN1 190642Z 14008KT 07/M01 A30 RMK A01 T00651014  RH  057%=      5-min Rain = 0
KEN1 190643Z 14008KT 07/M01 A30 RMK A01 T00651014  RH  057%=      5-min Rain = 0
KEN1 190644Z 14008KT 06/M01 A30 RMK A01 T00641014  RH  057%=      5-min Rain = 0
KEN1 190645Z 14008KT 06/M02 A30 RMK A01 T00631015  RH  058%=      5-min Rain = 0
KEN1 190646Z 14008KT 06/M02 A30 RMK A01 T00631015  RH  058%=      5-min Rain = 0
KEN1 190647Z 14008KT 06/M02 A30 RMK A01 T00621015  RH  058%=      5-min Rain = 0
KEN1 190648Z 14009KT 06/M02 A30 RMK A01 T00621015  RH  058%=      5-min Rain = 0
KEN1 190649Z 14008KT 06/M02 A30 RMK A01 T00621016  RH  058%=      5-min Rain = 0
KEN1 190650Z 14008KT 06/M02 A30 RMK A01 T00621015  RH  058%=      5-min Rain = 0
KEN1 190651Z 14008KT 06/M02 A30 RMK A01 T00621016  RH  057%=      5-min Rain = 0
KEN1 190652Z 14008KT 06/M02 A30 RMK A01 T00631015  RH  057%=      5-min Rain = 0
KEN1 190653Z 14008KT 06/M02 A30 RMK A01 T00641015  RH  057%=      5-min Rain = 0
KEN1 190654Z 14008KT 06/M02 A30 RMK A01 T00641016  RH  056%=      5-min Rain = 0
KEN1 190655Z 14008KT 06/M02 A30 RMK A01 T00641016  RH  056%=      5-min Rain = 0
KEN1 190656Z 14007KT 06/M02 A30 RMK A01 T00641016  RH  056%=      5-min Rain = 0
KEN1 190657Z 15007KT 06/M02 A30 RMK A01 T00641016  RH  056%=      5-min Rain = 0
KEN1 190658Z 16006KT 06/M02 A30 RMK A01 T00631017  RH  057%=      5-min Rain = 0
KEN1 190659Z 15006KT 06/M02 A30 RMK A01 T00621017  RH  057%=      5-min Rain = 0
KEN1 190700Z 15006KT 06/M02 A30 RMK A01 T00621017  RH  057%=      5-min Rain = 0
KEN1 190701Z 15006KT 06/M02 A30 RMK A01 T00631017  RH  057%=      5-min Rain = 0
KEN1 190702Z 15007KT 06/M02 A30 RMK A01 T00631017  RH  056%=      5-min Rain = 0
KEN1 190703Z 14007KT 06/M02 A30 RMK A01 T00641018  RH  056%=      5-min Rain = 0
KEN1 190704Z 14007KT 07/M02 A30 RMK A01 T00651018  RH  056%=      5-min Rain = 0
KEN1 190705Z 14008KT 07/M02 A30 RMK A01 T00651018  RH  056%=      5-min Rain = 0
KEN1 190706Z 15008KT 07/M02 A30 RMK A01 T00651017  RH  056%=      5-min Rain = 0
KEN1 190707Z 17007KT 06/M02 A30 RMK A01 T00641018  RH  056%=      5-min Rain = 0
KEN1 190708Z 17008KT 06/M02 A30 RMK A01 T00621018  RH  056%=      5-min Rain = 0
KEN1 190709Z 16009KT 06/M02 A30 RMK A01 T00611018  RH  057%=      5-min Rain = 0
KEN1 190710Z 16009KT 06/M02 A30 RMK A01 T00611018  RH  057%=      5-min Rain = 0
KEN1 190711Z 16009KT 06/M02 A30 RMK A01 T00631018  RH  056%=      5-min Rain = 0
KEN1 190712Z 16008KT 06/M02 A30 RMK A01 T00631018  RH  056%=      5-min Rain = 0
KEN1 190713Z 16008KT 06/M02 A30 RMK A01 T00641018  RH  056%=      5-min Rain = 0
KEN1 190714Z 16008KT 06/M02 A30 RMK A01 T00631017  RH  056%=      5-min Rain = 0
KEN1 190715Z 17007KT 06/M02 A30 RMK A01 T00631018  RH  056%=      5-min Rain = 0
KEN1 190716Z 17007KT 06/M02 A30 RMK A01 T00621017  RH  057%=      5-min Rain = 0
KEN1 190717Z 16008KT 06/M02 A30 RMK A01 T00611018  RH  057%=      5-min Rain = 0
KEN1 190718Z 16008KT 06/M02 A30 RMK A01 T00611018  RH  057%=      5-min Rain = 0
KEN1 190719Z 16008KT 06/M02 A30 RMK A01 T00601018  RH  057%=      5-min Rain = 0
KEN1 190720Z 16008KT 06/M02 A30 RMK A01 T00601018  RH  057%=      5-min Rain = 0
KEN1 190721Z 16008KT 06/M02 A30 RMK A01 T00601018  RH  057%=      5-min Rain = 0
KEN1 190722Z 16008KT 06/M02 A30 RMK A01 T00611018  RH  057%=      5-min Rain = 0
KEN1 190723Z 15009KT 06/M02 A30 RMK A01 T00611018  RH  057%=      5-min Rain = 0
KEN1 190724Z 16009KT 06/M02 A30 RMK A01 T00611018  RH  057%=      5-min Rain = 0
KEN1 190725Z 16009KT 06/M02 A30 RMK A01 T00611018  RH  057%=      5-min Rain = 0
KEN1 190726Z 16008KT 06/M02 A30 RMK A01 T00611018  RH  057%=      5-min Rain = 0
KEN1 190727Z 16008KT 06/M02 A30 RMK A01 T00621018  RH  057%=      5-min Rain = 0
KEN1 190728Z 17007KT 06/M02 A30 RMK A01 T00641017  RH  056%=      5-min Rain = 0
KEN1 190729Z 17007KT 07/M02 A30 RMK A01 T00651017  RH  056%=      5-min Rain = 0
KEN1 190730Z 17005KT 07/M02 A30 RMK A01 T00661017  RH  055%=      5-min Rain = 0
KEN1 190731Z 17005KT 06/M02 A30 RMK A01 T00621020  RH  056%=      5-min Rain = 0
KEN1 190732Z 18005KT 06/M02 A30 RMK A01 T00591019  RH  057%=      5-min Rain = 0
KEN1 190733Z 18004KT 06/M02 A30 RMK A01 T00591019  RH  057%=      5-min Rain = 0
KEN1 190734Z 18005KT 06/M02 A30 RMK A01 T00581019  RH  058%=      5-min Rain = 0
KEN1 190735Z 17005KT 06/M02 A30 RMK A01 T00581019  RH  058%=      5-min Rain = 0
KEN1 190736Z 17005KT 06/M02 A2999 RMK A01 T00591019  RH  057%=      5-min Rain = 0
KEN1 190737Z 16005KT 06/M02 A2999 RMK A01 T00591019  RH  057%=      5-min Rain = 0
KEN1 190738Z 16005KT 06/M02 A2999 RMK A01 T00591018  RH  058%=      5-min Rain = 0
KEN1 190739Z 17006KT 06/M02 A2999 RMK A01 T00601019  RH  057%=      5-min Rain = 0
KEN1 190740Z 17006KT 06/M02 A2999 RMK A01 T00601019  RH  057%=      5-min Rain = 0
KEN1 190741Z 17006KT 06/M02 A2999 RMK A01 T00621019  RH  056%=      5-min Rain = 0
KEN1 190742Z 17006KT 07/M02 A2999 RMK A01 T00651019  RH  055%=      5-min Rain = 0
KEN1 190743Z 17006KT 07/M02 A2999 RMK A01 T00671019  RH  054%=      5-min Rain = 0
KEN1 190744Z 18005KT 07/M02 A2999 RMK A01 T00681019  RH  054%=      5-min Rain = 0
KEN1 190745Z 18005KT 07/M02 A2999 RMK A01 T00681019  RH  054%=      5-min Rain = 0
KEN1 190746Z 18004KT 07/M02 A2999 RMK A01 T00671020  RH  054%=      5-min Rain = 0
KEN1 190747Z 17004KT 07/M02 A2999 RMK A01 T00671019  RH  054%=      5-min Rain = 0
KEN1 190748Z 17005KT 07/M02 A2999 RMK A01 T00681019  RH  054%=      5-min Rain = 0
KEN1 190749Z 16005KT 07/M02 A2999 RMK A01 T00681020  RH  053%=      5-min Rain = 0
KEN1 190750Z 16005KT 07/M02 A2999 RMK A01 T00681020  RH  053%=      5-min Rain = 0
KEN1 190751Z 16005KT 07/M02 A2999 RMK A01 T00671020  RH  054%=      5-min Rain = 0
KEN1 190752Z 16005KT 07/M02 A2999 RMK A01 T00661020  RH  054%=      5-min Rain = 0
KEN1 190753Z 16005KT 07/M02 A2999 RMK A01 T00661020  RH  054%=      5-min Rain = 0
KEN1 190754Z 16006KT 07/M02 A2999 RMK A01 T00661020  RH  054%=      5-min Rain = 0
KEN1 190755Z 16005KT 07/M02 A2999 RMK A01 T00671020  RH  054%=      5-min Rain = 0
KEN1 190756Z 16006KT 07/M02 A2999 RMK A01 T00681019  RH  054%=      5-min Rain = 0
KEN1 190757Z 16006KT 07/M02 A2999 RMK A01 T00691019  RH  053%=      5-min Rain = 0
KEN1 190758Z 16006KT 07/M02 A2999 RMK A01 T00701019  RH  053%=      5-min Rain = 0
KEN1 190759Z 16005KT 07/M02 A2999 RMK A01 T00711019  RH  053%=      5-min Rain = 0
KEN1 190800Z 15005KT 07/M02 A2999 RMK A01 T00711020  RH  052%=      5-min Rain = 0
KEN1 190801Z 15006KT 07/M02 A2999 RMK A01 T00721019  RH  052%=      5-min Rain = 0
KEN1 190802Z 15006KT 07/M02 A2999 RMK A01 T00731019  RH  052%=      5-min Rain = 0
KEN1 190803Z 15006KT 07/M02 A2999 RMK A01 T00741020  RH  052%=      5-min Rain = 0
KEN1 190804Z 16006KT 07/M02 A2999 RMK A01 T00741020  RH  051%=      5-min Rain = 0
KEN1 190805Z 16006KT 08/M02 A2999 RMK A01 T00751020  RH  051%=      5-min Rain = 0
KEN1 190806Z 16006KT 08/M02 A2999 RMK A01 T00751020  RH  051%=      5-min Rain = 0
KEN1 190807Z 16005KT 08/M02 A2999 RMK A01 T00751020  RH  051%=      5-min Rain = 0
KEN1 190808Z 17005KT 08/M02 A2999 RMK A01 T00751020  RH  051%=      5-min Rain = 0
KEN1 190809Z 17005KT 08/M02 A2999 RMK A01 T00751020  RH  051%=      5-min Rain = 0
KEN1 190810Z 18005KT 08/M02 A2999 RMK A01 T00751020  RH  051%=      5-min Rain = 0
KEN1 190811Z 18004KT 08/M02 A2999 RMK A01 T00751020  RH  051%=      5-min Rain = 0
KEN1 190812Z 19004KT 07/M02 A2999 RMK A01 T00741020  RH  051%=      5-min Rain = 0
KEN1 190813Z 19004KT 07/M02 A2999 RMK A01 T00731020  RH  052%=      5-min Rain = 0
KEN1 190814Z 19004KT 07/M02 A2999 RMK A01 T00731019  RH  052%=      5-min Rain = 0
KEN1 190815Z 19004KT 07/M02 A2999 RMK A01 T00731019  RH  052%=      5-min Rain = 0
KEN1 190816Z 18004KT 07/M02 A2999 RMK A01 T00741019  RH  052%=      5-min Rain = 0
KEN1 190817Z 18004KT 08/M02 A2999 RMK A01 T00751019  RH  051%=      5-min Rain = 0
KEN1 190818Z 18003KT 08/M02 A2999 RMK A01 T00751019  RH  051%=      5-min Rain = 0
KEN1 190819Z 18004KT 07/M02 A2999 RMK A01 T00741020  RH  052%=      5-min Rain = 0
KEN1 190820Z 17004KT 07/M02 A2999 RMK A01 T00721020  RH  052%=      5-min Rain = 0
KEN1 190821Z 17004KT 07/M02 A2999 RMK A01 T00721019  RH  052%=      5-min Rain = 0
KEN1 190822Z 16004KT 07/M02 A2999 RMK A01 T00721019  RH  052%=      5-min Rain = 0
KEN1 190823Z 16005KT 07/M02 A2999 RMK A01 T00721019  RH  052%=      5-min Rain = 0
KEN1 190824Z 16005KT 07/M02 A2999 RMK A01 T00741019  RH  052%=      5-min Rain = 0
KEN1 190825Z 16005KT 07/M02 A2999 RMK A01 T00741020  RH  051%=      5-min Rain = 0
KEN1 190826Z 16005KT 07/M02 A2999 RMK A01 T00721020  RH  052%=      5-min Rain = 0
KEN1 190827Z 16005KT 07/M02 A2999 RMK A01 T00701021  RH  052%=      5-min Rain = 0
KEN1 190828Z 16005KT 07/M02 A2999 RMK A01 T00691020  RH  053%=      5-min Rain = 0
KEN1 190829Z 16005KT 07/M02 A2999 RMK A01 T00691020  RH  053%=      5-min Rain = 0
KEN1 190830Z 15005KT 07/M02 A2999 RMK A01 T00681020  RH  053%=      5-min Rain = 0
KEN1 190831Z 15005KT 07/M02 A2999 RMK A01 T00681020  RH  053%=      5-min Rain = 0
KEN1 190832Z 15005KT 07/M02 A2999 RMK A01 T00691020  RH  053%=      5-min Rain = 0
KEN1 190833Z 15006KT 07/M02 A2999 RMK A01 T00701020  RH  053%=      5-min Rain = 0
KEN1 190834Z 16005KT 07/M02 A2999 RMK A01 T00711021  RH  052%=      5-min Rain = 0
KEN1 190835Z 16005KT 07/M02 A2999 RMK A01 T00711021  RH  052%=      5-min Rain = 0
KEN1 190836Z 15006KT 07/M02 A2999 RMK A01 T00711021  RH  052%=      5-min Rain = 0
KEN1 190837Z 15007KT 07/M02 A2999 RMK A01 T00711020  RH  052%=      5-min Rain = 0
KEN1 190838Z 15006KT 07/M02 A2999 RMK A01 T00711021  RH  052%=      5-min Rain = 0
KEN1 190839Z 15006KT 07/M02 A2999 RMK A01 T00701022  RH  052%=      5-min Rain = 0
KEN1 190840Z 15006KT 07/M02 A2999 RMK A01 T00671022  RH  053%=      5-min Rain = 0
KEN1 190841Z 16005KT 06/M02 A2999 RMK A01 T00641022  RH  054%=      5-min Rain = 0
KEN1 190842Z 16005KT 06/M02 A2999 RMK A01 T00631022  RH  055%=      5-min Rain = 0
KEN1 190843Z 16005KT 06/M02 A2999 RMK A01 T00631021  RH  055%=      5-min Rain = 0
KEN1 190844Z 16004KT 06/M02 A2999 RMK A01 T00641021  RH  055%=      5-min Rain = 0
KEN1 190845Z 16004KT 07/M02 A2999 RMK A01 T00651020  RH  054%=      5-min Rain = 0
KEN1 190846Z 16004KT 07/M02 A2999 RMK A01 T00661020  RH  054%=      5-min Rain = 0
KEN1 190847Z 17004KT 07/M02 A2999 RMK A01 T00661021  RH  054%=      5-min Rain = 0
KEN1 190848Z 16004KT 07/M02 A2999 RMK A01 T00661020  RH  054%=      5-min Rain = 0
KEN1 190849Z 16004KT 07/M02 A2999 RMK A01 T00671020  RH  054%=      5-min Rain = 0
KEN1 190850Z 16004KT 07/M02 A2998 RMK A01 T00681020  RH  053%=      5-min Rain = 0
KEN1 190851Z 16003KT 07/M02 A2999 RMK A01 T00691020  RH  053%=      5-min Rain = 0
KEN1 190852Z 17003KT 07/M02 A2999 RMK A01 T00701020  RH  053%=      5-min Rain = 0
KEN1 190853Z 17003KT 07/M02 A2999 RMK A01 T00701020  RH  052%=      5-min Rain = 0
KEN1 190854Z 18003KT 07/M02 A2999 RMK A01 T00711020  RH  052%=      5-min Rain = 0
KEN1 190855Z 18003KT 07/M02 A2999 RMK A01 T00711021  RH  052%=      5-min Rain = 0
KEN1 190856Z 19004KT 07/M02 A2999 RMK A01 T00701021  RH  052%=      5-min Rain = 0
KEN1 190857Z 19004KT 07/M02 A2999 RMK A01 T00701020  RH  053%=      5-min Rain = 0
KEN1 190858Z 20004KT 07/M02 A2999 RMK A01 T00721020  RH  052%=      5-min Rain = 0
KEN1 190859Z 20004KT 08/M02 A2999 RMK A01 T00751020  RH  051%=      5-min Rain = 0
KEN1 190900Z 21004KT 08/M02 A2999 RMK A01 T00751021  RH  051%=      5-min Rain = 0
KEN1 190901Z 20004KT 08/M02 A2999 RMK A01 T00761021  RH  050%=      5-min Rain = 0
KEN1 190902Z 19004KT 08/M02 A2999 RMK A01 T00771021  RH  050%=      5-min Rain = 0
KEN1 190903Z 19004KT 08/M02 A2999 RMK A01 T00791021  RH  049%=      5-min Rain = 0
KEN1 190904Z 19004KT 08/M02 A2999 RMK A01 T00791021  RH  049%=      5-min Rain = 0
KEN1 190905Z 18004KT 08/M02 A2999 RMK A01 T00791021  RH  049%=      5-min Rain = 0
KEN1 190906Z 18005KT 08/M02 A2999 RMK A01 T00801022  RH  049%=      5-min Rain = 0
KEN1 190907Z 18005KT 08/M02 A2999 RMK A01 T00821022  RH  048%=      5-min Rain = 0
KEN1 190908Z 18005KT 08/M02 A2999 RMK A01 T00841022  RH  047%=      5-min Rain = 0
KEN1 190909Z 17006KT 09/M02 A2999 RMK A01 T00851023  RH  047%=      5-min Rain = 0
KEN1 190910Z 17006KT 09/M02 A2999 RMK A01 T00861023  RH  046%=      5-min Rain = 0
KEN1 190911Z 18007KT 09/M02 A2999 RMK A01 T00861023  RH  046%=      5-min Rain = 0
KEN1 190912Z 18004KT 09/M02 A2999 RMK A01 T00851024  RH  047%=      5-min Rain = 0
KEN1 190913Z 18004KT 07/M03 A2999 RMK A01 T00741027  RH  049%=      5-min Rain = 0
KEN1 190914Z 18004KT 07/M03 A2999 RMK A01 T00661027  RH  052%=      5-min Rain = 0
KEN1 190915Z 18004KT 06/M03 A2999 RMK A01 T00591027  RH  054%=      5-min Rain = 0
KEN1 190916Z 18005KT 05/M03 A2999 RMK A01 T00521028  RH  056%=      5-min Rain = 0
KEN1 190917Z 17005KT 05/M03 A2999 RMK A01 T00481028  RH  058%=      5-min Rain = 0
KEN1 190918Z 17006KT 05/M03 A2999 RMK A01 T00451027  RH  059%=      5-min Rain = 0
KEN1 190919Z 17007KT 05/M03 A2999 RMK A01 T00461025  RH  060%=      5-min Rain = 0
KEN1 190920Z 18008KT 05/M02 A2999 RMK A01 T00531022  RH  059%=      5-min Rain = 0
KEN1 190921Z 18009KT 06/M02 A2999 RMK A01 T00611020  RH  056%=      5-min Rain = 0
KEN1 190922Z 18009KT 07/M02 A2999 RMK A01 T00681020  RH  053%=      5-min Rain = 0
KEN1 190923Z 17009KT 07/M02 A2999 RMK A01 T00731020  RH  051%=      5-min Rain = 0
KEN1 190924Z 18010KT 08/M02 A2998 RMK A01 T00751021  RH  050%=      5-min Rain = 0
KEN1 190925Z 18011KT 08/M02 A2998 RMK A01 T00781020  RH  050%=      5-min Rain = 0
KEN1 190926Z 18011KT 08/M02 A2998 RMK A01 T00831019  RH  049%=      5-min Rain = 0
KEN1 190927Z 18010KT 09/M02 A2998 RMK A01 T00871018  RH  048%=      5-min Rain = 0
KEN1 190928Z 18009KT 09/M02 A2998 RMK A01 T00891018  RH  047%=      5-min Rain = 0
KEN1 190929Z 18009KT 09/M02 A2998 RMK A01 T00881019  RH  047%=      5-min Rain = 0
KEN1 190930Z 18009KT 09/M02 A2998 RMK A01 T00861019  RH  047%=      5-min Rain = 0
KEN1 190931Z 18008KT 09/M02 A2998 RMK A01 T00851020  RH  048%=      5-min Rain = 0
KEN1 190932Z 18008KT 08/M02 A2999 RMK A01 T00831020  RH  048%=      5-min Rain = 0
KEN1 190933Z 17007KT 08/M02 A2999 RMK A01 T00811020  RH  049%=      5-min Rain = 0
KEN1 190934Z 17007KT 08/M02 A2999 RMK A01 T00791020  RH  049%=      5-min Rain = 0
KEN1 190935Z 17007KT 08/M02 A2999 RMK A01 T00781020  RH  050%=      5-min Rain = 0
KEN1 190936Z 17007KT 08/M02 A2999 RMK A01 T00771021  RH  050%=      5-min Rain = 0
KEN1 190937Z 17007KT 08/M02 A2999 RMK A01 T00761021  RH  050%=      5-min Rain = 0
KEN1 190938Z 17007KT 08/M02 A2999 RMK A01 T00761021  RH  050%=      5-min Rain = 0
KEN1 190939Z 17006KT 08/M02 A2999 RMK A01 T00761021  RH  050%=      5-min Rain = 0
KEN1 190940Z 17006KT 08/M02 A2999 RMK A01 T00761021  RH  050%=      5-min Rain = 0
KEN1 190941Z 18007KT 08/M02 A2998 RMK A01 T00751021  RH  050%=      5-min Rain = 0
KEN1 190942Z 17007KT 08/M02 A2998 RMK A01 T00761020  RH  050%=      5-min Rain = 0
KEN1 190943Z 16006KT 08/M02 A2998 RMK A01 T00771021  RH  050%=      5-min Rain = 0
KEN1 190944Z 15007KT 08/M02 A2998 RMK A01 T00781020  RH  050%=      5-min Rain = 0
KEN1 190945Z 16007KT 08/M02 A2998 RMK A01 T00791020  RH  050%=      5-min Rain = 0
KEN1 190946Z 15007KT 08/M02 A2998 RMK A01 T00801020  RH  049%=      5-min Rain = 0
KEN1 190947Z 15007KT 08/M02 A2998 RMK A01 T00801020  RH  049%=      5-min Rain = 0
KEN1 190948Z 15007KT 08/M02 A2998 RMK A01 T00791020  RH  050%=      5-min Rain = 0
KEN1 190949Z 15007KT 08/M02 A2998 RMK A01 T00781020  RH  050%=      5-min Rain = 0
KEN1 190950Z 14008KT 08/M02 A2998 RMK A01 T00751021  RH  050%=      5-min Rain = 0
KEN1 190951Z 14008KT 08/M02 A2998 RMK A01 T00751020  RH  051%=      5-min Rain = 0
KEN1 190952Z 15008KT 08/M02 A2998 RMK A01 T00761019  RH  051%=      5-min Rain = 0
KEN1 190953Z 15009KT 08/M02 A2998 RMK A01 T00761019  RH  051%=      5-min Rain = 0
KEN1 190954Z 15010KT 08/M02 A2998 RMK A01 T00761018  RH  051%=      5-min Rain = 0
KEN1 190955Z 15010KT 08/M02 A2997 RMK A01 T00761016  RH  052%=      5-min Rain = 0
KEN1 190956Z 15009KT 08/M02 A2997 RMK A01 T00761015  RH  052%=      5-min Rain = 0
KEN1 190957Z 15009KT 08/M01 A2997 RMK A01 T00761014  RH  053%=      5-min Rain = 0
KEN1 190958Z 15009KT 08/M01 A2997 RMK A01 T00761014  RH  053%=      5-min Rain = 0
KEN1 190959Z 15008KT 08/M01 A2997 RMK A01 T00761014  RH  053%=      5-min Rain = 0
KEN1 191000Z 15008KT 08/M01 A2997 RMK A01 T00751014  RH  053%=      5-min Rain = 0
KEN1 191001Z 15008KT 07/M01 A2997 RMK A01 T00741014  RH  053%=      5-min Rain = 0
KEN1 191002Z 14008KT 07/M02 A2997 RMK A01 T00741015  RH  053%=      5-min Rain = 0
KEN1 191003Z 14008KT 07/M02 A2997 RMK A01 T00731015  RH  053%=      5-min Rain = 0
KEN1 191004Z 14008KT 07/M02 A2997 RMK A01 T00711016  RH  054%=      5-min Rain = 0
KEN1 191005Z 14008KT 07/M02 A2997 RMK A01 T00701016  RH  054%=      5-min Rain = 0
KEN1 191006Z 14008KT 07/M02 A2997 RMK A01 T00691017  RH  054%=      5-min Rain = 0
KEN1 191007Z 14007KT 07/M02 A2997 RMK A01 T00691017  RH  055%=      5-min Rain = 0
KEN1 191008Z 14007KT 07/M02 A2997 RMK A01 T00691016  RH  054%=      5-min Rain = 0
KEN1 191009Z 14007KT 07/M02 A2997 RMK A01 T00691017  RH  054%=      5-min Rain = 0
KEN1 191010Z 14006KT 07/M02 A2997 RMK A01 T00691017  RH  054%=      5-min Rain = 0
KEN1 191011Z 14006KT 07/M02 A2997 RMK A01 T00701017  RH  054%=      5-min Rain = 0
KEN1 191012Z 14006KT 07/M02 A2997 RMK A01 T00711017  RH  054%=      5-min Rain = 0
KEN1 191013Z 14006KT 07/M02 A2997 RMK A01 T00731016  RH  053%=      5-min Rain = 0
KEN1 191014Z 14006KT 08/M02 A2997 RMK A01 T00761015  RH  052%=      5-min Rain = 0
KEN1 191015Z 15005KT 08/M02 A2997 RMK A01 T00781016  RH  051%=      5-min Rain = 0
KEN1 191016Z 15005KT 08/M02 A2997 RMK A01 T00781017  RH  051%=      5-min Rain = 0
KEN1 191017Z 16005KT 08/M02 A2997 RMK A01 T00781016  RH  051%=      5-min Rain = 0
KEN1 191018Z 16005KT 08/M02 A2997 RMK A01 T00781016  RH  051%=      5-min Rain = 0
KEN1 191019Z 16004KT 08/M02 A2997 RMK A01 T00781016  RH  051%=      5-min Rain = 0
KEN1 191020Z 16005KT 08/M02 A2997 RMK A01 T00791016  RH  051%=      5-min Rain = 0
KEN1 191021Z 16005KT 08/M02 A2996 RMK A01 T00791016  RH  051%=      5-min Rain = 0
KEN1 191022Z 16005KT 08/M02 A2996 RMK A01 T00801016  RH  051%=      5-min Rain = 0
KEN1 191023Z 15005KT 08/M02 A2996 RMK A01 T00811015  RH  051%=      5-min Rain = 0
KEN1 191024Z 15005KT 08/M02 A2996 RMK A01 T00821015  RH  050%=      5-min Rain = 0
KEN1 191025Z 15005KT 08/M02 A2996 RMK A01 T00831015  RH  050%=      5-min Rain = 0
KEN1 191026Z 16005KT 08/M02 A2996 RMK A01 T00841015  RH  050%=      5-min Rain = 0
KEN1 191027Z 15004KT 08/M02 A2996 RMK A01 T00841015  RH  050%=      5-min Rain = 0
KEN1 191028Z 16004KT 08/M02 A2996 RMK A01 T00831015  RH  050%=      5-min Rain = 0
KEN1 191029Z 16004KT 08/M02 A2996 RMK A01 T00831015  RH  050%=      5-min Rain = 0
KEN1 191030Z 16004KT 08/M02 A2996 RMK A01 T00831015  RH  050%=      5-min Rain = 0
KEN1 191031Z 16005KT 08/M02 A2996 RMK A01 T00821015  RH  050%=      5-min Rain = 0
KEN1 191032Z 15004KT 08/M01 A2996 RMK A01 T00821014  RH  051%=      5-min Rain = 0
KEN1 191033Z 15004KT 08/M02 A2996 RMK A01 T00821015  RH  050%=      5-min Rain = 0
KEN1 191034Z 16005KT 08/M02 A2996 RMK A01 T00831015  RH  050%=      5-min Rain = 0
KEN1 191035Z 16004KT 08/M02 A2996 RMK A01 T00821015  RH  050%=      5-min Rain = 0
KEN1 191036Z 16004KT 08/M01 A2996 RMK A01 T00831014  RH  050%=      5-min Rain = 0
KEN1 191037Z 17004KT 08/M01 A2996 RMK A01 T00831014  RH  050%=      5-min Rain = 0
KEN1 191038Z 16003KT 08/M02 A2996 RMK A01 T00821015  RH  051%=      5-min Rain = 0
KEN1 191039Z 17004KT 08/M01 A2996 RMK A01 T00821014  RH  051%=      5-min Rain = 0
KEN1 191040Z 17003KT 08/M02 A2996 RMK A01 T00821015  RH  050%=      5-min Rain = 0
KEN1 191041Z 16003KT 08/M02 A2996 RMK A01 T00811015  RH  051%=      5-min Rain = 0
KEN1 191042Z 16003KT 08/M01 A2996 RMK A01 T00801014  RH  051%=      5-min Rain = 0
KEN1 191043Z 16003KT 08/M01 A2996 RMK A01 T00821013  RH  051%=      5-min Rain = 0
KEN1 191044Z 16003KT 08/M01 A2996 RMK A01 T00841013  RH  050%=      5-min Rain = 0
KEN1 191045Z 15004KT 09/M01 A2996 RMK A01 T00861013  RH  050%=      5-min Rain = 0
KEN1 191046Z 15004KT 09/M01 A2996 RMK A01 T00871013  RH  049%=      5-min Rain = 0
KEN1 191047Z 16004KT 09/M01 A2996 RMK A01 T00881013  RH  049%=      5-min Rain = 0
KEN1 191048Z 15004KT 09/M01 A2996 RMK A01 T00891013  RH  049%=      5-min Rain = 0
KEN1 191049Z 15004KT 09/M01 A2996 RMK A01 T00891014  RH  048%=      5-min Rain = 0
KEN1 191050Z 15004KT 09/M01 A2996 RMK A01 T00901013  RH  048%=      5-min Rain = 0
KEN1 191051Z 16004KT 09/M01 A2996 RMK A01 T00901014  RH  048%=      5-min Rain = 0
KEN1 191052Z 16005KT 09/M01 A2996 RMK A01 T00911014  RH  048%=      5-min Rain = 0
KEN1 191053Z 16004KT 09/M01 A2996 RMK A01 T00911014  RH  048%=      5-min Rain = 0
KEN1 191054Z 16004KT 09/M02 A2996 RMK A01 T00911015  RH  048%=      5-min Rain = 0
KEN1 191055Z 16005KT 09/M02 A2996 RMK A01 T00911015  RH  048%=      5-min Rain = 0
KEN1 191056Z 16004KT 09/M02 A2996 RMK A01 T00891015  RH  048%=      5-min Rain = 0
KEN1 191057Z 16004KT 09/M02 A2996 RMK A01 T00891015  RH  048%=      5-min Rain = 0
KEN1 191058Z 16005KT 09/M02 A2996 RMK A01 T00881016  RH  048%=      5-min Rain = 0
KEN1 191059Z 16005KT 09/M02 A2996 RMK A01 T00871016  RH  048%=      5-min Rain = 0
KEN1 191100Z 15005KT 09/M02 A2996 RMK A01 T00861016  RH  049%=      5-min Rain = 0
KEN1 191101Z 15005KT 08/M02 A2996 RMK A01 T00841016  RH  049%=      5-min Rain = 0
KEN1 191102Z 15005KT 08/M02 A2996 RMK A01 T00831016  RH  050%=      5-min Rain = 0
KEN1 191103Z 16006KT 08/M02 A2996 RMK A01 T00821016  RH  050%=      5-min Rain = 0
KEN1 191104Z 16005KT 08/M02 A2996 RMK A01 T00801017  RH  050%=      5-min Rain = 0
KEN1 191105Z 16005KT 08/M02 A2996 RMK A01 T00791017  RH  051%=      5-min Rain = 0
KEN1 191106Z 16005KT 08/M02 A2996 RMK A01 T00771017  RH  051%=      5-min Rain = 0
KEN1 191107Z 15005KT 08/M02 A2996 RMK A01 T00761017  RH  052%=      5-min Rain = 0
KEN1 191108Z 16005KT 08/M02 A2996 RMK A01 T00761017  RH  052%=      5-min Rain = 0
KEN1 191109Z 16005KT 08/M02 A2995 RMK A01 T00751017  RH  052%=      5-min Rain = 0
KEN1 191110Z 16004KT 08/M02 A2995 RMK A01 T00751017  RH  052%=      5-min Rain = 0
KEN1 191111Z 15005KT 08/M02 A2995 RMK A01 T00751017  RH  052%=      5-min Rain = 0
KEN1 191112Z 16005KT 08/M02 A2995 RMK A01 T00751017  RH  052%=      5-min Rain = 0
KEN1 191113Z 16005KT 08/M02 A2995 RMK A01 T00761017  RH  052%=      5-min Rain = 0
KEN1 191114Z 16005KT 08/M02 A2995 RMK A01 T00771017  RH  051%=      5-min Rain = 0
KEN1 191115Z 16005KT 08/M02 A2995 RMK A01 T00781017  RH  051%=      5-min Rain = 0
KEN1 191116Z 16005KT 08/M02 A2995 RMK A01 T00781017  RH  051%=      5-min Rain = 0
KEN1 191117Z 16005KT 08/M02 A2995 RMK A01 T00781017  RH  051%=      5-min Rain = 0
KEN1 191118Z 17005KT 08/M02 A2995 RMK A01 T00791018  RH  051%=      5-min Rain = 0
KEN1 191119Z 17005KT 08/M02 A2995 RMK A01 T00791017  RH  050%=      5-min Rain = 0
KEN1 191120Z 17005KT 08/M02 A2995 RMK A01 T00801018  RH  050%=      5-min Rain = 0
KEN1 191121Z 17005KT 08/M02 A2995 RMK A01 T00791018  RH  050%=      5-min Rain = 0
KEN1 191122Z 17005KT 08/M02 A2995 RMK A01 T00781018  RH  051%=      5-min Rain = 0
KEN1 191123Z 17006KT 08/M02 A2995 RMK A01 T00771018  RH  051%=      5-min Rain = 0
KEN1 191124Z 17007KT 08/M02 A2995 RMK A01 T00791018  RH  050%=      5-min Rain = 0
KEN1 191125Z 17007KT 08/M02 A2995 RMK A01 T00801018  RH  050%=      5-min Rain = 0
KEN1 191126Z 17007KT 08/M02 A2995 RMK A01 T00811018  RH  050%=      5-min Rain = 0
KEN1 191127Z 16007KT 08/M02 A2995 RMK A01 T00831018  RH  049%=      5-min Rain = 0
KEN1 191128Z 16008KT 08/M02 A2995 RMK A01 T00831018  RH  049%=      5-min Rain = 0
KEN1 191129Z 16007KT 08/M02 A2995 RMK A01 T00841018  RH  049%=      5-min Rain = 0
KEN1 191130Z 16008KT 08/M02 A2995 RMK A01 T00831018  RH  049%=      5-min Rain = 0
KEN1 191131Z 16008KT 08/M02 A2995 RMK A01 T00831018  RH  049%=      5-min Rain = 0
KEN1 191132Z 16008KT 08/M02 A2995 RMK A01 T00841018  RH  048%=      5-min Rain = 0
KEN1 191133Z 16008KT 09/M02 A2995 RMK A01 T00851018  RH  048%=      5-min Rain = 0
KEN1 191134Z 17008KT 08/M02 A2995 RMK A01 T00821019  RH  049%=      5-min Rain = 0
KEN1 191135Z 17008KT 08/M02 A2995 RMK A01 T00811019  RH  049%=      5-min Rain = 0
KEN1 191136Z 17008KT 08/M02 A2995 RMK A01 T00821018  RH  049%=      5-min Rain = 0
KEN1 191137Z 19005KT 08/M02 A2995 RMK A01 T00811019  RH  050%=      5-min Rain = 0
KEN1 191138Z 22004KT 07/M02 A2995 RMK A01 T00731021  RH  051%=      5-min Rain = 0
KEN1 191139Z 20005KT 07/M02 A2995 RMK A01 T00681021  RH  053%=      5-min Rain = 0
KEN1 191140Z 21004KT 07/M02 A2995 RMK A01 T00661021  RH  054%=      5-min Rain = 0
KEN1 191141Z 22004KT 06/M02 A2995 RMK A01 T00641021  RH  054%=      5-min Rain = 0
KEN1 191142Z 22005KT 06/M02 A2995 RMK A01 T00621021  RH  055%=      5-min Rain = 0
KEN1 191143Z 21005KT 06/M02 A2995 RMK A01 T00601022  RH  056%=      5-min Rain = 0
KEN1 191144Z 22005KT 06/M02 A2995 RMK A01 T00581022  RH  056%=      5-min Rain = 0
KEN1 191145Z 21005KT 06/M02 A2995 RMK A01 T00581022  RH  057%=      5-min Rain = 0
KEN1 191146Z 20005KT 06/M02 A2995 RMK A01 T00571022  RH  057%=      5-min Rain = 0
KEN1 191147Z 20005KT 06/M02 A2995 RMK A01 T00571022  RH  057%=      5-min Rain = 0
KEN1 191148Z 19005KT 06/M02 A2995 RMK A01 T00581021  RH  057%=      5-min Rain = 0
KEN1 191149Z 19005KT 06/M02 A2995 RMK A01 T00621020  RH  056%=      5-min Rain = 0
KEN1 191150Z 19006KT 07/M02 A2995 RMK A01 T00651019  RH  055%=      5-min Rain = 0
KEN1 191151Z 19006KT 07/M02 A2995 RMK A01 T00691019  RH  054%=      5-min Rain = 0
KEN1 191152Z 18006KT 07/M02 A2995 RMK A01 T00711019  RH  053%=      5-min Rain = 0
KEN1 191153Z 18007KT 07/M02 A2995 RMK A01 T00731019  RH  052%=      5-min Rain = 0
KEN1 191154Z 19008KT 08/M02 A2995 RMK A01 T00761018  RH  051%=      5-min Rain = 0
KEN1 191155Z 19007KT 08/M02 A2995 RMK A01 T00791018  RH  050%=      5-min Rain = 0
KEN1 191156Z 19008KT 08/M02 A2995 RMK A01 T00771019  RH  051%=      5-min Rain = 0
KEN1 191157Z 18007KT 08/M02 A2995 RMK A01 T00751019  RH  051%=      5-min Rain = 0
KEN1 191158Z 19007KT 07/M02 A2995 RMK A01 T00741018  RH  052%=      5-min Rain = 0
KEN1 191159Z 19007KT 08/M02 A2995 RMK A01 T00761016  RH  052%=      5-min Rain = 0
KEN1 191200Z 19007KT 08/M02 A2995 RMK A01 T00771016  RH  052%=      5-min Rain = 0
KEN1 191201Z 20006KT 07/M02 A2995 RMK A01 T00741018  RH  052%=      5-min Rain = 0
KEN1 191202Z 19006KT 07/M02 A2994 RMK A01 T00701019  RH  053%=      5-min Rain = 0
KEN1 191203Z 20006KT 07/M02 A2994 RMK A01 T00671019  RH  054%=      5-min Rain = 0
KEN1 191204Z 19006KT 07/M02 A2994 RMK A01 T00651020  RH  055%=      5-min Rain = 0
KEN1 191205Z 20006KT 07/M02 A2994 RMK A01 T00661019  RH  055%=      5-min Rain = 0
KEN1 191206Z 20006KT 07/M02 A2994 RMK A01 T00661019  RH  054%=      5-min Rain = 0
KEN1 191207Z 20006KT 06/M02 A2994 RMK A01 T00641020  RH  055%=      5-min Rain = 0
KEN1 191208Z 21007KT 06/M02 A2994 RMK A01 T00611021  RH  056%=      5-min Rain = 0
KEN1 191209Z 22006KT 06/M02 A2994 RMK A01 T00561022  RH  057%=      5-min Rain = 0
KEN1 191210Z 22007KT 06/M02 A2994 RMK A01 T00551021  RH  058%=      5-min Rain = 0
KEN1 191211Z 23007KT 06/M02 A2994 RMK A01 T00551021  RH  058%=      5-min Rain = 0
KEN1 191212Z 23007KT 06/M02 A2995 RMK A01 T00561020  RH  058%=      5-min Rain = 0
KEN1 191213Z 24007KT 06/M02 A2995 RMK A01 T00561020  RH  058%=      5-min Rain = 0
KEN1 191214Z 24008KT 06/M02 A2995 RMK A01 T00561019  RH  058%=      5-min Rain = 0
KEN1 191215Z 24008KT 06/M02 A2995 RMK A01 T00561019  RH  059%=      5-min Rain = 0
KEN1 191216Z 25007KT 06/M02 A2995 RMK A01 T00551019  RH  059%=      5-min Rain = 0
KEN1 191217Z 25008KT 05/M02 A2995 RMK A01 T00531020  RH  059%=      5-min Rain = 0
KEN1 191218Z 24008KT 05/M02 A2995 RMK A01 T00521020  RH  060%=      5-min Rain = 0
KEN1 191219Z 24008KT 05/M02 A2995 RMK A01 T00501020  RH  060%=      5-min Rain = 0
KEN1 191220Z 24007KT 05/M02 A2995 RMK A01 T00491020  RH  061%=      5-min Rain = 0
KEN1 191221Z 23007KT 05/M02 A2995 RMK A01 T00471021  RH  062%=      5-min Rain = 0
KEN1 191222Z 22009KT 05/M02 A2995 RMK A01 T00461020  RH  062%=      5-min Rain = 0
KEN1 191223Z 22010KT 05/M02 A2995 RMK A01 T00461019  RH  062%=      5-min Rain = 0
KEN1 191224Z 22009KT 05/M02 A2995 RMK A01 T00491017  RH  062%=      5-min Rain = 0
KEN1 191225Z 21008KT 06/M01 A2994 RMK A01 T00581013  RH  061%=      5-min Rain = 0
KEN1 191226Z 21007KT 06/M01 A2994 RMK A01 T00631013  RH  058%=      5-min Rain = 0
KEN1 191227Z 20007KT 06/M02 A2994 RMK A01 T00641015  RH  057%=      5-min Rain = 0
KEN1 191228Z 20007KT 07/M02 A2994 RMK A01 T00651015  RH  056%=      5-min Rain = 0
KEN1 191229Z 20008KT 07/M02 A2994 RMK A01 T00651016  RH  056%=      5-min Rain = 0
KEN1 191230Z 20008KT 07/M02 A2994 RMK A01 T00651016  RH  056%=      5-min Rain = 0
KEN1 191231Z 20008KT 07/M02 A2994 RMK A01 T00651016  RH  056%=      5-min Rain = 0
KEN1 191232Z 20008KT 07/M02 A2994 RMK A01 T00651016  RH  056%=      5-min Rain = 0
KEN1 191233Z 20008KT 06/M02 A2994 RMK A01 T00641017  RH  056%=      5-min Rain = 0
KEN1 191234Z 20009KT 06/M02 A2994 RMK A01 T00621017  RH  057%=      5-min Rain = 0
KEN1 191235Z 20009KT 06/M02 A2994 RMK A01 T00611018  RH  057%=      5-min Rain = 0
KEN1 191236Z 21009KT 06/M02 A2994 RMK A01 T00581018  RH  058%=      5-min Rain = 0
KEN1 191237Z 21008KT 06/M02 A2994 RMK A01 T00581017  RH  059%=      5-min Rain = 0
KEN1 191238Z 21008KT 06/M02 A2994 RMK A01 T00571017  RH  059%=      5-min Rain = 0
KEN1 191239Z 21008KT 06/M02 A2994 RMK A01 T00581016  RH  059%=      5-min Rain = 0
KEN1 191240Z 21007KT 06/M02 A2994 RMK A01 T00591015  RH  059%=      5-min Rain = 0
KEN1 191241Z 21008KT 06/M02 A2994 RMK A01 T00601015  RH  059%=      5-min Rain = 0
KEN1 191242Z 21007KT 06/M02 A2994 RMK A01 T00611015  RH  058%=      5-min Rain = 0
KEN1 191243Z 20008KT 06/M01 A2994 RMK A01 T00621014  RH  058%=      5-min Rain = 0
KEN1 191244Z 20007KT 06/M02 A2993 RMK A01 T00621015  RH  058%=      5-min Rain = 0
KEN1 191245Z 20005KT 06/M01 A2993 RMK A01 T00631014  RH  058%=      5-min Rain = 0
KEN1 191246Z 20006KT 06/M01 A2993 RMK A01 T00621014  RH  058%=      5-min Rain = 0
KEN1 191247Z 19005KT 06/M01 A2993 RMK A01 T00621014  RH  058%=      5-min Rain = 0
KEN1 191248Z 19006KT 06/M01 A2993 RMK A01 T00631014  RH  058%=      5-min Rain = 0
KEN1 191249Z 18006KT 06/M02 A2993 RMK A01 T00631015  RH  057%=      5-min Rain = 0
KEN1 191250Z 18005KT 06/M02 A2993 RMK A01 T00621015  RH  058%=      5-min Rain = 0
KEN1 191251Z 17006KT 06/M02 A2993 RMK A01 T00621015  RH  058%=      5-min Rain = 0
KEN1 191252Z 17005KT 06/M02 A2993 RMK A01 T00621015  RH  058%=      5-min Rain = 0
KEN1 191253Z 17005KT 06/M02 A2993 RMK A01 T00631015  RH  057%=      5-min Rain = 0
KEN1 191254Z 18005KT 06/M02 A2993 RMK A01 T00631015  RH  057%=      5-min Rain = 0
KEN1 191255Z 18005KT 06/M02 A2993 RMK A01 T00621016  RH  058%=      5-min Rain = 0
KEN1 191256Z 18004KT 06/M02 A2993 RMK A01 T00601017  RH  058%=      5-min Rain = 0
KEN1 191257Z 18004KT 06/M02 A2993 RMK A01 T00571019  RH  058%=      5-min Rain = 0
KEN1 191258Z 18004KT 06/M02 A2993 RMK A01 T00551018  RH  059%=      5-min Rain = 0
KEN1 191259Z 18004KT 06/M02 A2993 RMK A01 T00581016  RH  059%=      5-min Rain = 0
KEN1 191300Z 18004KT 06/M02 A2993 RMK A01 T00621015  RH  058%=      5-min Rain = 0
KEN1 191301Z 19004KT 06/M02 A2993 RMK A01 T00641016  RH  057%=      5-min Rain = 0
KEN1 191302Z 18004KT 07/M02 A2993 RMK A01 T00651016  RH  056%=      5-min Rain = 0
KEN1 191303Z 18004KT 07/M02 A2993 RMK A01 T00661016  RH  056%=      5-min Rain = 0
KEN1 191304Z 18003KT 07/M02 A2993 RMK A01 T00671015  RH  056%=      5-min Rain = 0
KEN1 191305Z 19002KT 07/M02 A2993 RMK A01 T00691015  RH  055%=      5-min Rain = 0
KEN1 191306Z 18003KT 07/M02 A2993 RMK A01 T00691015  RH  055%=      5-min Rain = 0
KEN1 191307Z 16003KT 07/M02 A2993 RMK A01 T00711015  RH  055%=      5-min Rain = 0
KEN1 191308Z 16003KT 07/M01 A2993 RMK A01 T00721014  RH  054%=      5-min Rain = 0
KEN1 191309Z 15004KT 08/M01 A2993 RMK A01 T00751013  RH  054%=      5-min Rain = 0
KEN1 191310Z 14004KT 08/M01 A2993 RMK A01 T00771013  RH  053%=      5-min Rain = 0
KEN1 191311Z 14004KT 08/M01 A2993 RMK A01 T00791012  RH  052%=      5-min Rain = 0
KEN1 191312Z 14005KT 08/M01 A2993 RMK A01 T00811012  RH  052%=      5-min Rain = 0
KEN1 191313Z 13005KT 08/M01 A2993 RMK A01 T00821013  RH  051%=      5-min Rain = 0
KEN1 191314Z 14004KT 08/M01 A2993 RMK A01 T00821013  RH  051%=      5-min Rain = 0
KEN1 191315Z 14005KT 08/M01 A2993 RMK A01 T00811013  RH  051%=      5-min Rain = 0
KEN1 191316Z 14003KT 08/M01 A2993 RMK A01 T00801014  RH  052%=      5-min Rain = 0
KEN1 191317Z 14002KT 08/M01 A2993 RMK A01 T00781014  RH  052%=      5-min Rain = 0
KEN1 191318Z 13001KT 08/M01 A2993 RMK A01 T00781014  RH  052%=      5-min Rain = 0
KEN1 191319Z 13001KT 08/M01 A2993 RMK A01 T00771014  RH  053%=      5-min Rain = 0
KEN1 191320Z 13002KT 08/M01 A2993 RMK A01 T00771013  RH  053%=      5-min Rain = 0
KEN1 191321Z 13003KT 08/M01 A2993 RMK A01 T00771014  RH  053%=      5-min Rain = 0
KEN1 191322Z 14002KT 08/M01 A2993 RMK A01 T00761014  RH  053%=      5-min Rain = 0
KEN1 191323Z 14003KT 08/M01 A2993 RMK A01 T00751013  RH  053%=      5-min Rain = 0
KEN1 191324Z 14002KT 07/M01 A2993 RMK A01 T00741013  RH  054%=      5-min Rain = 0
KEN1 191325Z 14002KT 07/M01 A2993 RMK A01 T00741013  RH  054%=      5-min Rain = 0
KEN1 191326Z 15002KT 07/M02 A2993 RMK A01 T00691017  RH  054%=      5-min Rain = 0
KEN1 191327Z 15001KT 07/M02 A2993 RMK A01 T00651018  RH  056%=      5-min Rain = 0
KEN1 191328Z 14000KT 07/M02 A2993 RMK A01 T00651015  RH  057%=      5-min Rain = 0
KEN1 191329Z 15002KT 07/M01 A2993 RMK A01 T00661013  RH  057%=      5-min Rain = 0
KEN1 191330Z 14002KT 07/M01 A2993 RMK A01 T00681013  RH  056%=      5-min Rain = 0
KEN1 191331Z 17002KT 07/M01 A2993 RMK A01 T00701013  RH  055%=      5-min Rain = 0
KEN1 191332Z 25001KT 07/M01 A2993 RMK A01 T00721012  RH  055%=      5-min Rain = 0
KEN1 191333Z 24001KT 07/M01 A2993 RMK A01 T00731012  RH  054%=      5-min Rain = 0
KEN1 191334Z 20001KT 08/M01 A2993 RMK A01 T00751012  RH  054%=      5-min Rain = 0
KEN1 191335Z 20002KT 08/M01 A2993 RMK A01 T00751013  RH  053%=      5-min Rain = 0
KEN1 191336Z 22001KT 07/M02 A2993 RMK A01 T00701018  RH  054%=      5-min Rain = 0
KEN1 191337Z 25002KT 07/M02 A2993 RMK A01 T00681015  RH  055%=      5-min Rain = 0
KEN1 191338Z 24001KT 07/M01 A2993 RMK A01 T00701014  RH  055%=      5-min Rain = 0
KEN1 191339Z 24000KT 07/M01 A2993 RMK A01 T00721013  RH  055%=      5-min Rain = 0
KEN1 191340Z 24001KT 08/M01 A2993 RMK A01 T00761012  RH  054%=      5-min Rain = 0
KEN1 191341Z 00000KT 08/M01 A2993 RMK A01 T00771013  RH  053%=      5-min Rain = 0
KEN1 191342Z 32000KT 08/M01 A2993 RMK A01 T00781013  RH  052%=      5-min Rain = 0
KEN1 191343Z 30000KT 08/M01 A2993 RMK A01 T00791013  RH  052%=      5-min Rain = 0
KEN1 191344Z 00000KT 08/M01 A2993 RMK A01 T00791014  RH  052%=      5-min Rain = 0
KEN1 191345Z 30001KT 08/M02 A2993 RMK A01 T00771016  RH  052%=      5-min Rain = 0
KEN1 191346Z 26001KT 07/M02 A2993 RMK A01 T00721019  RH  052%=      5-min Rain = 0
KEN1 191347Z 29000KT 07/M02 A2993 RMK A01 T00701017  RH  054%=      5-min Rain = 0
KEN1 191348Z 33001KT 07/M02 A2993 RMK A01 T00681018  RH  054%=      5-min Rain = 0
KEN1 191349Z 28001KT 07/M02 A2993 RMK A01 T00661017  RH  055%=      5-min Rain = 0
KEN1 191350Z 29002KT 07/M02 A2993 RMK A01 T00671016  RH  055%=      5-min Rain = 0
KEN1 191351Z 27002KT 07/M02 A2993 RMK A01 T00681015  RH  055%=      5-min Rain = 0
KEN1 191352Z 28002KT 07/M01 A2993 RMK A01 T00711014  RH  055%=      5-min Rain = 0
KEN1 191353Z 25002KT 07/M01 A2993 RMK A01 T00741014  RH  054%=      5-min Rain = 0
KEN1 191354Z 24002KT 08/M01 A2993 RMK A01 T00751014  RH  053%=      5-min Rain = 0
KEN1 191355Z 23002KT 08/M01 A2993 RMK A01 T00771014  RH  052%=      5-min Rain = 0
KEN1 191356Z 24002KT 08/M01 A2993 RMK A01 T00791014  RH  052%=      5-min Rain = 0
KEN1 191357Z 22001KT 08/M01 A2993 RMK A01 T00811014  RH  051%=      5-min Rain = 0
KEN1 191358Z 19002KT 08/M01 A2993 RMK A01 T00831014  RH  050%=      5-min Rain = 0
KEN1 191359Z 19003KT 08/M02 A2993 RMK A01 T00841015  RH  050%=      5-min Rain = 0
KEN1 191400Z 19004KT 09/M01 A2993 RMK A01 T00881014  RH  049%=      5-min Rain = 0
KEN1 191401Z 19003KT 09/M01 A2992 RMK A01 T00891013  RH  049%=      5-min Rain = 0
KEN1 191402Z 19004KT 09/M01 A2992 RMK A01 T00891014  RH  049%=      5-min Rain = 0
KEN1 191403Z 19005KT 09/M01 A2992 RMK A01 T00881014  RH  049%=      5-min Rain = 0
KEN1 191404Z 20005KT 09/M01 A2992 RMK A01 T00901014  RH  048%=      5-min Rain = 0
KEN1 191405Z 20005KT 09/M01 A2992 RMK A01 T00911012  RH  049%=      5-min Rain = 0
KEN1 191406Z 21005KT 09/M01 A2992 RMK A01 T00901012  RH  049%=      5-min Rain = 0
KEN1 191407Z 21005KT 09/M01 A2992 RMK A01 T00901012  RH  049%=      5-min Rain = 0
KEN1 191408Z 23006KT 09/M01 A2993 RMK A01 T00901011  RH  049%=      5-min Rain = 0
KEN1 191409Z 23005KT 09/M01 A2993 RMK A01 T00901010  RH  050%=      5-min Rain = 0
KEN1 191410Z 23006KT 09/M01 A2993 RMK A01 T00891009  RH  050%=      5-min Rain = 0
KEN1 191411Z 23007KT 09/M01 A2993 RMK A01 T00891008  RH  051%=      5-min Rain = 0
KEN1 191412Z 22006KT 09/M01 A2993 RMK A01 T00881007  RH  051%=      5-min Rain = 0
KEN1 191413Z 20006KT 09/M01 A2992 RMK A01 T00881007  RH  052%=      5-min Rain = 0
KEN1 191414Z 19005KT 09/M01 A2992 RMK A01 T00871006  RH  052%=      5-min Rain = 0
KEN1 191415Z 20004KT 09/M01 A2992 RMK A01 T00871006  RH  052%=      5-min Rain = 0
KEN1 191416Z 20005KT 09/M01 A2992 RMK A01 T00881006  RH  052%=      5-min Rain = 0
KEN1 191417Z 18005KT 09/M01 A2992 RMK A01 T00881006  RH  052%=      5-min Rain = 0
KEN1 191418Z 17004KT 09/M01 A2992 RMK A01 T00891005  RH  052%=      5-min Rain = 0
KEN1 191419Z 16004KT 09/M00 A2992 RMK A01 T00901004  RH  052%=      5-min Rain = 0
KEN1 191420Z 17005KT 09/M00 A2992 RMK A01 T00911003  RH  052%=      5-min Rain = 0
KEN1 191421Z 17005KT 09/M00 A2992 RMK A01 T00911003  RH  052%=      5-min Rain = 0
KEN1 191422Z 17005KT 09/M00 A2992 RMK A01 T00921003  RH  052%=      5-min Rain = 0
KEN1 191423Z 17005KT 09/M00 A2992 RMK A01 T00931004  RH  051%=      5-min Rain = 0
KEN1 191424Z 16004KT 10/M01 A2992 RMK A01 T00951005  RH  049%=      5-min Rain = 0
KEN1 191425Z 16004KT 10/M00 A2992 RMK A01 T00971004  RH  049%=      5-min Rain = 0
KEN1 191426Z 16006KT 10/M00 A2992 RMK A01 T00991003  RH  049%=      5-min Rain = 0
KEN1 191427Z 16006KT 10/M00 A2992 RMK A01 T01021002  RH  048%=      5-min Rain = 0
KEN1 191428Z 17006KT 10/M00 A2992 RMK A01 T01041002  RH  048%=      5-min Rain = 0
KEN1 191429Z 18006KT 11/M00 A2992 RMK A01 T01051002  RH  047%=      5-min Rain = 0
KEN1 191430Z 18006KT 11/M00 A2992 RMK A01 T01061002  RH  047%=      5-min Rain = 0
KEN1 191431Z 18006KT 11/M00 A2992 RMK A01 T01081001  RH  047%=      5-min Rain = 0
KEN1 191432Z 18005KT 11/M00 A2992 RMK A01 T01111001  RH  046%=      5-min Rain = 0
KEN1 191433Z 18006KT 11/00 A2992 RMK A01 T011300-0  RH  046%=      5-min Rain = 0
KEN1 191434Z 19005KT 12/00 A2992 RMK A01 T011500-0  RH  045%=      5-min Rain = 0
KEN1 191435Z 18005KT 12/00 A2992 RMK A01 T01170001  RH  045%=      5-min Rain = 0
KEN1 191436Z 19005KT 12/00 A2992 RMK A01 T01190000  RH  044%=      5-min Rain = 0
KEN1 191437Z 20005KT 12/00 A2992 RMK A01 T01200001  RH  044%=      5-min Rain = 0
KEN1 191438Z 20005KT 12/00 A2992 RMK A01 T01220002  RH  044%=      5-min Rain = 0
KEN1 191439Z 19005KT 12/00 A2992 RMK A01 T01230001  RH  043%=      5-min Rain = 0
KEN1 191440Z 19006KT 13/00 A2992 RMK A01 T01250001  RH  043%=      5-min Rain = 0
KEN1 191441Z 19005KT 13/00 A2992 RMK A01 T01270001  RH  042%=      5-min Rain = 0
KEN1 191442Z 19005KT 13/00 A2992 RMK A01 T01290002  RH  042%=      5-min Rain = 0
KEN1 191443Z 19005KT 13/00 A2992 RMK A01 T01310000  RH  041%=      5-min Rain = 0
KEN1 191444Z 19004KT 13/00 A2992 RMK A01 T01320000  RH  040%=      5-min Rain = 0
KEN1 191445Z 19006KT 13/M00 A2992 RMK A01 T01331001  RH  040%=      5-min Rain = 0
KEN1 191446Z 19005KT 13/M00 A2992 RMK A01 T01341004  RH  039%=      5-min Rain = 0
KEN1 191447Z 20007KT 13/M00 A2992 RMK A01 T01341004  RH  039%=      5-min Rain = 0
KEN1 191448Z 20007KT 14/M00 A2992 RMK A01 T01351004  RH  038%=      5-min Rain = 0
KEN1 191449Z 19007KT 14/M00 A2992 RMK A01 T01351004  RH  038%=      5-min Rain = 0
KEN1 191450Z 20008KT 14/M00 A2992 RMK A01 T01351003  RH  039%=      5-min Rain = 0
KEN1 191451Z 19009KT 14/M00 A2992 RMK A01 T01351004  RH  038%=      5-min Rain = 0
KEN1 191452Z 20011KT 14/M01 A2992 RMK A01 T01361006  RH  038%=      5-min Rain = 0
KEN1 191453Z 20010KT 14/M01 A2992 RMK A01 T01381007  RH  037%=      5-min Rain = 0
KEN1 191454Z 21008KT 14/M01 A2992 RMK A01 T01391007  RH  037%=      5-min Rain = 0
KEN1 191455Z 21007KT 14/M01 A2992 RMK A01 T01391005  RH  037%=      5-min Rain = 0
KEN1 191456Z 20009KT 14/M01 A2992 RMK A01 T01381005  RH  037%=      5-min Rain = 0
KEN1 191457Z 21009KT 14/M01 A2992 RMK A01 T01381006  RH  037%=      5-min Rain = 0
KEN1 191458Z 21009KT 14/M01 A2992 RMK A01 T01401006  RH  037%=      5-min Rain = 0
KEN1 191459Z 21009KT 14/M01 A2992 RMK A01 T01421005  RH  036%=      5-min Rain = 0
KEN1 191500Z 21009KT 14/M00 A2992 RMK A01 T01441004  RH  036%=      5-min Rain = 0
KEN1 191501Z 22010KT 15/M01 A2992 RMK A01 T01461005  RH  035%=      5-min Rain = 0
KEN1 191502Z 21012KT 15/M01 A2992 RMK A01 T01491006  RH  035%=      5-min Rain = 0
KEN1 191503Z 21010KT 15/M01 A2992 RMK A01 T01501005  RH  034%=      5-min Rain = 0
KEN1 191504Z 22012KT 15/M01 A2992 RMK A01 T01511005  RH  034%=      5-min Rain = 0
KEN1 191505Z 22014KT 15/M01 A2992 RMK A01 T01521006  RH  034%=      5-min Rain = 0
KEN1 191506Z 22012KT 15/M01 A2992 RMK A01 T01521006  RH  034%=      5-min Rain = 0
KEN1 191507Z 22013KT 15/M01 A2992 RMK A01 T01531006  RH  034%=      5-min Rain = 0
KEN1 191508Z 21013KT 15/M01 A2992 RMK A01 T01521007  RH  034%=      5-min Rain = 0
KEN1 191509Z 21014KT 15/M01 A2992 RMK A01 T01511008  RH  034%=      5-min Rain = 0
KEN1 191510Z 21012KT 15/M01 A2992 RMK A01 T01501008  RH  034%=      5-min Rain = 0
KEN1 191511Z 21012KT 15/M01 A2992 RMK A01 T01501007  RH  034%=      5-min Rain = 0
KEN1 191512Z 21013KT 15/M01 A2992 RMK A01 T01521007  RH  034%=      5-min Rain = 0
KEN1 191513Z 21014KT 15/M01 A2992 RMK A01 T01531008  RH  033%=      5-min Rain = 0
KEN1 191514Z 22012KT 15/M01 A2992 RMK A01 T01531008  RH  033%=      5-min Rain = 0
KEN1 191515Z 22012KT 15/M01 A2992 RMK A01 T01531008  RH  033%=      5-min Rain = 0
KEN1 191516Z 22013KT 15/M01 A2992 RMK A01 T01531008  RH  033%=      5-min Rain = 0
KEN1 191517Z 22012KT 15/M01 A2992 RMK A01 T01521009  RH  033%=      5-min Rain = 0
KEN1 191518Z 22011KT 15/M01 A2992 RMK A01 T01511008  RH  033%=      5-min Rain = 0
KEN1 191519Z 22011KT 15/M01 A2992 RMK A01 T01521007  RH  034%=      5-min Rain = 0
KEN1 191520Z 22012KT 15/M01 A2992 RMK A01 T01541006  RH  033%=      5-min Rain = 0
KEN1 191521Z 21012KT 16/M01 A2992 RMK A01 T01561007  RH  033%=      5-min Rain = 0
KEN1 191522Z 21012KT 16/M01 A2992 RMK A01 T01591005  RH  033%=      5-min Rain = 0
KEN1 191523Z 21012KT 16/M01 A2992 RMK A01 T01611005  RH  032%=      5-min Rain = 0
KEN1 191524Z 21012KT 16/M01 A2992 RMK A01 T01631006  RH  032%=      5-min Rain = 0
KEN1 191525Z 21014KT 16/M01 A2992 RMK A01 T01641007  RH  031%=      5-min Rain = 0
KEN1 191526Z 21015KT 17/M01 A2992 RMK A01 T01651008  RH  031%=      5-min Rain = 0
KEN1 191527Z 21016KT 16/M01 A2992 RMK A01 T01641008  RH  031%=      5-min Rain = 0
KEN1 191528Z 21014KT 16/M01 A2992 RMK A01 T01641009  RH  031%=      5-min Rain = 0
KEN1 191529Z 21014KT 17/M01 A2992 RMK A01 T01651007  RH  031%=      5-min Rain = 0
KEN1 191530Z 21014KT 17/M01 A2992 RMK A01 T01661006  RH  031%=      5-min Rain = 0
KEN1 191531Z 21015KT 17/M01 A2992 RMK A01 T01681006  RH  031%=      5-min Rain = 0
KEN1 191532Z 21016KT 17/M01 A2992 RMK A01 T01681007  RH  030%=      5-min Rain = 0
KEN1 191533Z 21013KT 17/M01 A2992 RMK A01 T01681006  RH  031%=      5-min Rain = 0
KEN1 191534Z 22015KT 17/M01 A2992 RMK A01 T01701006  RH  030%=      5-min Rain = 0
KEN1 191535Z 22013KT 17/M01 A2992 RMK A01 T01701007  RH  030%=      5-min Rain = 0
KEN1 191536Z 22014KT 17/M01 A2992 RMK A01 T01711006  RH  030%=      5-min Rain = 0
KEN1 191537Z 22013KT 17/M01 A2992 RMK A01 T01711007  RH  030%=      5-min Rain = 0
KEN1 191538Z 21014KT 17/M01 A2992 RMK A01 T01721006  RH  030%=      5-min Rain = 0
KEN1 191539Z 22017KT 17/M01 A2992 RMK A01 T01731006  RH  030%=      5-min Rain = 0
KEN1 191540Z 21018KT 17/M01 A2992 RMK A01 T01741008  RH  029%=      5-min Rain = 0
KEN1 191541Z 21018KT 17/M01 A2992 RMK A01 T01741009  RH  029%=      5-min Rain = 0
KEN1 191542Z 21018KT 17/M01 A2992 RMK A01 T01741009  RH  029%=      5-min Rain = 0
KEN1 191543Z 21017KT 17/M01 A2992 RMK A01 T01741008  RH  029%=      5-min Rain = 0
KEN1 191544Z 20016KT 17/M01 A2992 RMK A01 T01741007  RH  029%=      5-min Rain = 0
KEN1 191545Z 21014KT 18/M01 A2992 RMK A01 T01761006  RH  029%=      5-min Rain = 0
KEN1 191546Z 21015KT 18/M01 A2992 RMK A01 T01771006  RH  029%=      5-min Rain = 0
KEN1 191547Z 21015KT 18/M01 A2992 RMK A01 T01771005  RH  029%=      5-min Rain = 0
KEN1 191548Z 21016KT 18/M01 A2992 RMK A01 T01781005  RH  029%=      5-min Rain = 0
KEN1 191549Z 21017KT 18/M01 A2992 RMK A01 T01781006  RH  029%=      5-min Rain = 0
KEN1 191550Z 21016KT 18/M01 A2992 RMK A01 T01771007  RH  029%=      5-min Rain = 0
KEN1 191551Z 20017KT 18/M01 A2992 RMK A01 T01781006  RH  029%=      5-min Rain = 0
KEN1 191552Z 20018KT 18/M01 A2992 RMK A01 T01771007  RH  029%=      5-min Rain = 0
KEN1 191553Z 21015KT 18/M01 A2992 RMK A01 T01771006  RH  029%=      5-min Rain = 0
KEN1 191554Z 21017KT 18/M01 A2992 RMK A01 T01781006  RH  029%=      5-min Rain = 0
KEN1 191555Z 20018KT 18/M01 A2992 RMK A01 T01791007  RH  028%=      5-min Rain = 0
KEN1 191556Z 21017KT 18/M01 A2992 RMK A01 T01781007  RH  028%=      5-min Rain = 0
KEN1 191557Z 21016KT 18/M01 A2992 RMK A01 T01781008  RH  028%=      5-min Rain = 0
KEN1 191558Z 20015KT 18/M01 A2992 RMK A01 T01801006  RH  028%=      5-min Rain = 0
KEN1 191559Z 21015KT 18/M01 A2992 RMK A01 T01811006  RH  028%=      5-min Rain = 0
KEN1 191600Z 21016KT 18/M01 A2992 RMK A01 T01831006  RH  028%=      5-min Rain = 0
KEN1 191601Z 21014KT 18/M01 A2992 RMK A01 T01831006  RH  028%=      5-min Rain = 0
KEN1 191602Z 20018KT 18/M01 A2992 RMK A01 T01841007  RH  028%=      5-min Rain = 0
KEN1 191603Z 21017KT 18/M01 A2992 RMK A01 T01841009  RH  027%=      5-min Rain = 0
KEN1 191604Z 21018KT 18/M01 A2992 RMK A01 T01841008  RH  027%=      5-min Rain = 0
KEN1 191605Z 20017KT 18/M01 A2992 RMK A01 T01841008  RH  027%=      5-min Rain = 0
KEN1 191606Z 21015KT 19/M01 A2992 RMK A01 T01851009  RH  027%=      5-min Rain = 0
KEN1 191607Z 21017G22KT 19/M01 A2992 RMK A01 T01861009  RH  027%=      5-min Rain = 0
KEN1 191608Z 21017KT 19/M01 A2992 RMK A01 T01861010  RH  026%=      5-min Rain = 0
KEN1 191609Z 21017KT 19/M01 A2992 RMK A01 T01861010  RH  027%=      5-min Rain = 0
KEN1 191610Z 21020KT 19/M01 A2992 RMK A01 T01871010  RH  026%=      5-min Rain = 0
KEN1 191611Z 20017KT 19/M01 A2992 RMK A01 T01871010  RH  026%=      5-min Rain = 0
KEN1 191612Z 21018KT 19/M01 A2992 RMK A01 T01871009  RH  027%=      5-min Rain = 0
KEN1 191613Z 21015KT 19/M01 A2992 RMK A01 T01871009  RH  027%=      5-min Rain = 0
KEN1 191614Z 21018KT 19/M01 A2992 RMK A01 T01871008  RH  027%=      5-min Rain = 0
KEN1 191615Z 20018KT 19/M01 A2992 RMK A01 T01871009  RH  027%=      5-min Rain = 0
KEN1 191616Z 20019KT 19/M01 A2992 RMK A01 T01861009  RH  027%=      5-min Rain = 0
KEN1 191617Z 20017KT 19/M01 A2992 RMK A01 T01861009  RH  027%=      5-min Rain = 0
KEN1 191618Z 21016KT 19/M01 A2992 RMK A01 T01861009  RH  027%=      5-min Rain = 0
KEN1 191619Z 21016KT 19/M01 A2992 RMK A01 T01871008  RH  027%=      5-min Rain = 0
KEN1 191620Z 21018KT 19/M01 A2992 RMK A01 T01881009  RH  027%=      5-min Rain = 0
KEN1 191621Z 20016KT 19/M01 A2992 RMK A01 T01871008  RH  027%=      5-min Rain = 0
KEN1 191622Z 21017KT 19/M01 A2992 RMK A01 T01871008  RH  027%=      5-min Rain = 0
KEN1 191623Z 21016KT 19/M01 A2992 RMK A01 T01881008  RH  027%=      5-min Rain = 0
KEN1 191624Z 21014KT 19/M01 A2992 RMK A01 T01881007  RH  027%=      5-min Rain = 0
KEN1 191625Z 20015KT 19/M01 A2992 RMK A01 T01881007  RH  027%=      5-min Rain = 0
KEN1 191626Z 21016KT 19/M01 A2992 RMK A01 T01881007  RH  027%=      5-min Rain = 0
KEN1 191627Z 21015KT 19/M01 A2992 RMK A01 T01871008  RH  027%=      5-min Rain = 0
KEN1 191628Z 21012KT 19/M01 A2992 RMK A01 T01861006  RH  027%=      5-min Rain = 0
KEN1 191629Z 21016G21KT 19/M01 A2991 RMK A01 T01871006  RH  027%=      5-min Rain = 0
KEN1 191630Z 21016KT 19/M01 A2992 RMK A01 T01881009  RH  026%=      5-min Rain = 0
KEN1 191631Z 20016KT 19/M01 A2991 RMK A01 T01881009  RH  026%=      5-min Rain = 0
KEN1 191632Z 21013KT 19/M01 A2992 RMK A01 T01891009  RH  026%=      5-min Rain = 0
KEN1 191633Z 20016KT 19/M01 A2991 RMK A01 T01901007  RH  026%=      5-min Rain = 0
KEN1 191634Z 20014KT 19/M01 A2992 RMK A01 T01911007  RH  026%=      5-min Rain = 0
KEN1 191635Z 20017KT 19/M01 A2991 RMK A01 T01921008  RH  026%=      5-min Rain = 0
KEN1 191636Z 21016KT 19/M01 A2991 RMK A01 T01921010  RH  026%=      5-min Rain = 0
KEN1 191637Z 21014KT 19/M01 A2991 RMK A01 T01921007  RH  026%=      5-min Rain = 0
KEN1 191638Z 21015KT 19/M01 A2991 RMK A01 T01931007  RH  026%=      5-min Rain = 0
KEN1 191639Z 21013KT 20/M01 A2991 RMK A01 T01951007  RH  026%=      5-min Rain = 0
KEN1 191640Z 20016KT 20/M01 A2991 RMK A01 T01961007  RH  026%=      5-min Rain = 0
KEN1 191641Z 20018KT 20/M01 A2991 RMK A01 T01971008  RH  025%=      5-min Rain = 0
KEN1 191642Z 21016KT 20/M01 A2991 RMK A01 T01981008  RH  025%=      5-min Rain = 0
KEN1 191643Z 20017KT 20/M01 A2991 RMK A01 T02001008  RH  025%=      5-min Rain = 0
KEN1 191644Z 20018KT 20/M01 A2991 RMK A01 T02011009  RH  024%=      5-min Rain = 0
KEN1 191645Z 20020KT 20/M01 A2991 RMK A01 T02021010  RH  024%=      5-min Rain = 0
KEN1 191646Z 20019KT 20/M01 A2991 RMK A01 T02021011  RH  024%=      5-min Rain = 0
KEN1 191647Z 20017KT 20/M01 A2991 RMK A01 T02021010  RH  024%=      5-min Rain = 0
KEN1 191648Z 19019KT 20/M01 A2991 RMK A01 T02021011  RH  024%=      5-min Rain = 0
KEN1 191649Z 20016KT 20/M01 A2991 RMK A01 T02021011  RH  024%=      5-min Rain = 0
KEN1 191650Z 20018KT 20/M01 A2991 RMK A01 T02021010  RH  024%=      5-min Rain = 0
KEN1 191651Z 20019KT 20/M01 A2991 RMK A01 T02021011  RH  024%=      5-min Rain = 0
KEN1 191652Z 20020KT 20/M01 A2991 RMK A01 T02021012  RH  024%=      5-min Rain = 0
KEN1 191653Z 21019KT 20/M01 A2991 RMK A01 T02021013  RH  024%=      5-min Rain = 0
KEN1 191654Z 21018KT 20/M01 A2991 RMK A01 T02021014  RH  023%=      5-min Rain = 0
KEN1 191655Z 20016KT 20/M01 A2991 RMK A01 T02031012  RH  024%=      5-min Rain = 0
KEN1 191656Z 21015KT 20/M01 A2991 RMK A01 T02041010  RH  024%=      5-min Rain = 0
KEN1 191657Z 21017KT 21/M01 A2991 RMK A01 T02061011  RH  023%=      5-min Rain = 0
KEN1 191658Z 21017G22KT 21/M01 A299 RMK A01 T02061011  RH  023%=      5-min Rain = 0
KEN1 191659Z 20020KT 21/M01 A299 RMK A01 T02081011  RH  023%=      5-min Rain = 0
KEN1 191700Z 20021KT 21/M01 A299 RMK A01 T02081013  RH  023%=      5-min Rain = 0
KEN1 191701Z 20021KT 21/M01 A299 RMK A01 T02081013  RH  023%=      5-min Rain = 0
KEN1 191702Z 20018KT 21/M01 A299 RMK A01 T02091013  RH  022%=      5-min Rain = 0
KEN1 191703Z 20018KT 21/M01 A299 RMK A01 T02101013  RH  022%=      5-min Rain = 0
KEN1 191704Z 20018KT 21/M01 A299 RMK A01 T02101012  RH  022%=      5-min Rain = 0
KEN1 191705Z 20018KT 21/M01 A299 RMK A01 T02111012  RH  022%=      5-min Rain = 0
KEN1 191706Z 20018KT 21/M01 A299 RMK A01 T02111012  RH  022%=      5-min Rain = 0
KEN1 191707Z 21018KT 21/M01 A299 RMK A01 T02111012  RH  022%=      5-min Rain = 0
KEN1 191708Z 20018KT 21/M01 A299 RMK A01 T02111012  RH  022%=      5-min Rain = 0
KEN1 191709Z 21020KT 21/M01 A299 RMK A01 T02121014  RH  022%=      5-min Rain = 0
KEN1 191710Z 21020KT 21/M01 A299 RMK A01 T02121014  RH  022%=      5-min Rain = 0
KEN1 191711Z 21018KT 21/M01 A299 RMK A01 T02121014  RH  022%=      5-min Rain = 0
KEN1 191712Z 21018KT 21/M02 A299 RMK A01 T02111015  RH  022%=      5-min Rain = 0
KEN1 191713Z 20016G21KT 21/M02 A299 RMK A01 T02111015  RH  022%=      5-min Rain = 0
KEN1 191714Z 21018KT 21/M02 A299 RMK A01 T02121016  RH  022%=      5-min Rain = 0
KEN1 191715Z 20017KT 21/M02 A299 RMK A01 T02111015  RH  022%=      5-min Rain = 0
KEN1 191716Z 21014KT 21/M01 A299 RMK A01 T02111014  RH  022%=      5-min Rain = 0
KEN1 191717Z 20014KT 21/M01 A299 RMK A01 T02121011  RH  022%=      5-min Rain = 0
KEN1 191718Z 20020KT 21/M01 A299 RMK A01 T02121013  RH  022%=      5-min Rain = 0
KEN1 191719Z 20020KT 21/M01 A299 RMK A01 T02121014  RH  022%=      5-min Rain = 0
KEN1 191720Z 20019KT 21/M01 A299 RMK A01 T02121014  RH  022%=      5-min Rain = 0
KEN1 191721Z 20016G21KT 21/M01 A299 RMK A01 T02131014  RH  022%=      5-min Rain = 0
KEN1 191722Z 20017KT 21/M01 A299 RMK A01 T02141013  RH  022%=      5-min Rain = 0
KEN1 191723Z 20019KT 22/M01 A2989 RMK A01 T02161013  RH  022%=      5-min Rain = 0
KEN1 191724Z 20018KT 22/M01 A2989 RMK A01 T02161013  RH  022%=      5-min Rain = 0
KEN1 191725Z 20020KT 22/M01 A2989 RMK A01 T02171013  RH  021%=      5-min Rain = 0
KEN1 191726Z 19020KT 22/M01 A2989 RMK A01 T02181014  RH  021%=      5-min Rain = 0
KEN1 191727Z 20017KT 22/M02 A2989 RMK A01 T02191015  RH  021%=      5-min Rain = 0
KEN1 191728Z 20019KT 22/M01 A2989 RMK A01 T02201014  RH  021%=      5-min Rain = 0
KEN1 191729Z 22019G24KT 22/M01 A2989 RMK A01 T02221013  RH  021%=      5-min Rain = 0
KEN1 191730Z 22019KT 22/M02 A2989 RMK A01 T02231016  RH  020%=      5-min Rain = 0
KEN1 191731Z 21015KT 22/M02 A2989 RMK A01 T02231015  RH  020%=      5-min Rain = 0
KEN1 191732Z 20018KT 23/M01 A2989 RMK A01 T02261012  RH  020%=      5-min Rain = 0
KEN1 191733Z 21019KT 23/M01 A2989 RMK A01 T02281013  RH  020%=      5-min Rain = 0
KEN1 191734Z 20016KT 23/M01 A2989 RMK A01 T02281011  RH  020%=      5-min Rain = 0
KEN1 191735Z 21013KT 23/M01 A2989 RMK A01 T02281011  RH  020%=      5-min Rain = 0
KEN1 191736Z 21017KT 23/M01 A2989 RMK A01 T02331008  RH  020%=      5-min Rain = 0
KEN1 191737Z 21017KT 23/M01 A2988 RMK A01 T02341014  RH  019%=      5-min Rain = 0
KEN1 191738Z 20017KT 23/M01 A2988 RMK A01 T02321013  RH  019%=      5-min Rain = 0
KEN1 191739Z 20018KT 23/M01 A2988 RMK A01 T02311012  RH  020%=      5-min Rain = 0
KEN1 191740Z 20017KT 23/M01 A2989 RMK A01 T02311012  RH  020%=      5-min Rain = 0
KEN1 191741Z 20017G22KT 23/M01 A2988 RMK A01 T02291012  RH  020%=      5-min Rain = 0
KEN1 191742Z 21019KT 23/M01 A2988 RMK A01 T02291013  RH  020%=      5-min Rain = 0
KEN1 191743Z 20018KT 23/M01 A2988 RMK A01 T02291014  RH  020%=      5-min Rain = 0
KEN1 191744Z 20016G21KT 23/M01 A2988 RMK A01 T02291013  RH  020%=      5-min Rain = 0
KEN1 191745Z 20018KT 23/M01 A2988 RMK A01 T02301013  RH  020%=      5-min Rain = 0
KEN1 191746Z 21019KT 23/M01 A2988 RMK A01 T02301014  RH  020%=      5-min Rain = 0
KEN1 191747Z 21017KT 23/M01 A2988 RMK A01 T02301013  RH  020%=      5-min Rain = 0
KEN1 191748Z 21017KT 23/M01 A2988 RMK A01 T02301014  RH  020%=      5-min Rain = 0
KEN1 191749Z 21017KT 23/M01 A2988 RMK A01 T02301013  RH  020%=      5-min Rain = 0
KEN1 191750Z 20017KT 23/M02 A2988 RMK A01 T02301015  RH  019%=      5-min Rain = 0
KEN1 191751Z 22016KT 23/M02 A2988 RMK A01 T02291016  RH  019%=      5-min Rain = 0
KEN1 191752Z 22020KT 23/M02 A2988 RMK A01 T02291019  RH  019%=      5-min Rain = 0
KEN1 191753Z 22019KT 23/M02 A2988 RMK A01 T02281021  RH  019%=      5-min Rain = 0
KEN1 191754Z 22018KT 23/M02 A2988 RMK A01 T02291020  RH  019%=      5-min Rain = 0
KEN1 191755Z 23020KT 23/M02 A2988 RMK A01 T02311019  RH  019%=      5-min Rain = 0
KEN1 191756Z 23019KT 23/M02 A2988 RMK A01 T02321020  RH  019%=      5-min Rain = 0
KEN1 191757Z 23017G23KT 23/M02 A2987 RMK A01 T02311020  RH  019%=      5-min Rain = 0
KEN1 191758Z 22018KT 23/M02 A2987 RMK A01 T02321019  RH  019%=      5-min Rain = 0
KEN1 191759Z 22016KT 23/M02 A2987 RMK A01 T02331018  RH  019%=      5-min Rain = 0
KEN1 191800Z 23019G24KT 23/M02 A2987 RMK A01 T02341018  RH  019%=      5-min Rain = 0
KEN1 191801Z 22019KT 23/M02 A2987 RMK A01 T02331020  RH  018%=      5-min Rain = 0
KEN1 191802Z 21018KT 23/M02 A2987 RMK A01 T02331018  RH  019%=      5-min Rain = 0
KEN1 191803Z 22016KT 23/M02 A2987 RMK A01 T02331018  RH  019%=      5-min Rain = 0
KEN1 191804Z 22017KT 24/M02 A2987 RMK A01 T02351016  RH  019%=      5-min Rain = 0
KEN1 191805Z 22017KT 24/M02 A2987 RMK A01 T02361016  RH  019%=      5-min Rain = 0
KEN1 191806Z 21016KT 24/M02 A2987 RMK A01 T02371015  RH  019%=      5-min Rain = 0
KEN1 191807Z 21016G22KT 24/M02 A2987 RMK A01 T02391015  RH  019%=      5-min Rain = 0
KEN1 191808Z 22018KT 24/M02 A2987 RMK A01 T02401015  RH  018%=      5-min Rain = 0
KEN1 191809Z 22016KT 24/M02 A2986 RMK A01 T02401015  RH  018%=      5-min Rain = 0
KEN1 191810Z 21018KT 24/M02 A2986 RMK A01 T02401016  RH  018%=      5-min Rain = 0
KEN1 191811Z 22017G22KT 24/M02 A2987 RMK A01 T02401015  RH  018%=      5-min Rain = 0
KEN1 191812Z 21017G22KT 24/M01 A2986 RMK A01 T02411014  RH  018%=      5-min Rain = 0
KEN1 191813Z 21021KT 24/M02 A2986 RMK A01 T02401016  RH  018%=      5-min Rain = 0
KEN1 191814Z 21018KT 24/M02 A2986 RMK A01 T02381017  RH  018%=      5-min Rain = 0
KEN1 191815Z 21020KT 24/M02 A2986 RMK A01 T02371016  RH  019%=      5-min Rain = 0
KEN1 191816Z 21020KT 24/M02 A2986 RMK A01 T02371016  RH  019%=      5-min Rain = 0
KEN1 191817Z 21020KT 24/M02 A2986 RMK A01 T02361017  RH  018%=      5-min Rain = 0
KEN1 191818Z 22018KT 24/M02 A2986 RMK A01 T02361017  RH  019%=      5-min Rain = 0
KEN1 191819Z 22017KT 24/M02 A2986 RMK A01 T02381015  RH  019%=      5-min Rain = 0
KEN1 191820Z 21019KT 24/M01 A2986 RMK A01 T02401013  RH  019%=      5-min Rain = 0
KEN1 191821Z 22017G22KT 24/M02 A2986 RMK A01 T02401015  RH  018%=      5-min Rain = 0
KEN1 191822Z 22019KT 24/M02 A2986 RMK A01 T02401015  RH  018%=      5-min Rain = 0
KEN1 191823Z 22019KT 24/M02 A2986 RMK A01 T02391017  RH  018%=      5-min Rain = 0
KEN1 191824Z 22018KT 24/M02 A2986 RMK A01 T02391016  RH  018%=      5-min Rain = 0
KEN1 191825Z 22021KT 24/M02 A2986 RMK A01 T02391016  RH  018%=      5-min Rain = 0
KEN1 191826Z 22018KT 24/M02 A2986 RMK A01 T02381016  RH  018%=      5-min Rain = 0
KEN1 191827Z 21015KT 24/M02 A2986 RMK A01 T02381016  RH  018%=      5-min Rain = 0
KEN1 191828Z 21016KT 24/M01 A2986 RMK A01 T02421012  RH  019%=      5-min Rain = 0
KEN1 191829Z 21019KT 24/M02 A2986 RMK A01 T02431015  RH  018%=      5-min Rain = 0
KEN1 191830Z 21020KT 24/M02 A2985 RMK A01 T02421015  RH  018%=      5-min Rain = 0
KEN1 191831Z 21020G25KT 24/M02 A2986 RMK A01 T02411016  RH  018%=      5-min Rain = 0
KEN1 191832Z 21019G24KT 24/M02 A2985 RMK A01 T02401017  RH  018%=      5-min Rain = 0
KEN1 191833Z 21020KT 24/M02 A2985 RMK A01 T02401017  RH  018%=      5-min Rain = 0
KEN1 191834Z 22019KT 24/M02 A2985 RMK A01 T02411018  RH  018%=      5-min Rain = 0
KEN1 191835Z 22018KT 24/M02 A2985 RMK A01 T02411017  RH  018%=      5-min Rain = 0
KEN1 191836Z 22017KT 24/M02 A2985 RMK A01 T02411018  RH  018%=      5-min Rain = 0
KEN1 191837Z 21020KT 24/M02 A2985 RMK A01 T02411018  RH  018%=      5-min Rain = 0
KEN1 191838Z 22021KT 24/M02 A2985 RMK A01 T02411018  RH  018%=      5-min Rain = 0
KEN1 191839Z 22018KT 24/M02 A2985 RMK A01 T02411017  RH  018%=      5-min Rain = 0
KEN1 191840Z 22019KT 24/M02 A2985 RMK A01 T02411017  RH  018%=      5-min Rain = 0
KEN1 191841Z 22016KT 24/M01 A2985 RMK A01 T02421014  RH  018%=      5-min Rain = 0
KEN1 191842Z 21018KT 25/M02 A2985 RMK A01 T02451015  RH  018%=      5-min Rain = 0
KEN1 191843Z 22017KT 25/M02 A2985 RMK A01 T02461016  RH  018%=      5-min Rain = 0
KEN1 191844Z 22020G26KT 25/M02 A2985 RMK A01 T02461016  RH  018%=      5-min Rain = 0
KEN1 191845Z 22020KT 25/M02 A2985 RMK A01 T02451018  RH  017%=      5-min Rain = 0
KEN1 191846Z 22019KT 24/M02 A2985 RMK A01 T02431020  RH  017%=      5-min Rain = 0
KEN1 191847Z 22017G22KT 24/M02 A2985 RMK A01 T02421019  RH  018%=      5-min Rain = 0
KEN1 191848Z 22020G25KT 25/M02 A2985 RMK A01 T02451019  RH  017%=      5-min Rain = 0
KEN1 191849Z 22017G22KT 24/M02 A2985 RMK A01 T02441020  RH  017%=      5-min Rain = 0
KEN1 191850Z 23018KT 25/M02 A2985 RMK A01 T02451019  RH  017%=      5-min Rain = 0
KEN1 191851Z 22017KT 25/M02 A2984 RMK A01 T02451021  RH  017%=      5-min Rain = 0
KEN1 191852Z 22017KT 24/M02 A2984 RMK A01 T02431022  RH  017%=      5-min Rain = 0
KEN1 191853Z 22017G22KT 24/M02 A2984 RMK A01 T02421020  RH  018%=      5-min Rain = 0
KEN1 191854Z 22020KT 24/M02 A2984 RMK A01 T02431020  RH  017%=      5-min Rain = 0
KEN1 191855Z 22017KT 24/M02 A2984 RMK A01 T02421019  RH  018%=      5-min Rain = 0
KEN1 191856Z 23015KT 24/M02 A2984 RMK A01 T02441018  RH  018%=      5-min Rain = 0
KEN1 191857Z 21015KT 25/M02 A2984 RMK A01 T02461017  RH  017%=      5-min Rain = 0
KEN1 191858Z 21018KT 25/M02 A2984 RMK A01 T02481018  RH  017%=      5-min Rain = 0
KEN1 191859Z 24017KT 25/M02 A2984 RMK A01 T02471020  RH  017%=      5-min Rain = 0
KEN1 191900Z 24017KT 25/M02 A2984 RMK A01 T02461022  RH  017%=      5-min Rain = 0
KEN1 191901Z 25017KT 25/M02 A2984 RMK A01 T02461022  RH  017%=      5-min Rain = 0
KEN1 191902Z 24018KT 25/M02 A2984 RMK A01 T02461022  RH  017%=      5-min Rain = 0
KEN1 191903Z 24018KT 25/M02 A2984 RMK A01 T02451022  RH  017%=      5-min Rain = 0
KEN1 191904Z 23016KT 25/M02 A2984 RMK A01 T02451022  RH  017%=      5-min Rain = 0
KEN1 191905Z 23015KT 25/M02 A2984 RMK A01 T02451021  RH  017%=      5-min Rain = 0
KEN1 191906Z 22014KT 25/M02 A2984 RMK A01 T02471019  RH  017%=      5-min Rain = 0
KEN1 191907Z 23018KT 25/M02 A2984 RMK A01 T02481019  RH  017%=      5-min Rain = 0
KEN1 191908Z 22018KT 25/M02 A2984 RMK A01 T02491021  RH  017%=      5-min Rain = 0
KEN1 191909Z 23017KT 25/M02 A2983 RMK A01 T02491021  RH  017%=      5-min Rain = 0
KEN1 191910Z 23015KT 25/M02 A2984 RMK A01 T02491021  RH  017%=      5-min Rain = 0
KEN1 191911Z 24015KT 25/M02 A2984 RMK A01 T02491021  RH  017%=      5-min Rain = 0
KEN1 191912Z 23016KT 25/M02 A2983 RMK A01 T02491021  RH  017%=      5-min Rain = 0
KEN1 191913Z 24016KT 25/M02 A2983 RMK A01 T02481021  RH  017%=      5-min Rain = 0
KEN1 191914Z 23014KT 25/M02 A2983 RMK A01 T02481020  RH  017%=      5-min Rain = 0
KEN1 191915Z 23012KT 25/M02 A2983 RMK A01 T02481019  RH  017%=      5-min Rain = 0
KEN1 191916Z 22016KT 25/M02 A2983 RMK A01 T02501017  RH  017%=      5-min Rain = 0
KEN1 191917Z 22014KT 25/M02 A2983 RMK A01 T02501020  RH  017%=      5-min Rain = 0
KEN1 191918Z 22015KT 25/M02 A2983 RMK A01 T02511018  RH  017%=      5-min Rain = 0
KEN1 191919Z 23017KT 25/M02 A2983 RMK A01 T02511019  RH  017%=      5-min Rain = 0
KEN1 191920Z 24013KT 25/M02 A2983 RMK A01 T02501023  RH  016%=      5-min Rain = 0
KEN1 191921Z 23014KT 25/M02 A2983 RMK A01 T02501023  RH  016%=      5-min Rain = 0
KEN1 191922Z 22017KT 25/M02 A2983 RMK A01 T02501023  RH  016%=      5-min Rain = 0
KEN1 191923Z 21016KT 25/M02 A2982 RMK A01 T02471024  RH  016%=      5-min Rain = 0
KEN1 191924Z 22014KT 25/M02 A2983 RMK A01 T02471023  RH  017%=      5-min Rain = 0
KEN1 191925Z 22016G22KT 25/M02 A2982 RMK A01 T02471021  RH  017%=      5-min Rain = 0
KEN1 191926Z 22019KT 25/M02 A2982 RMK A01 T02491022  RH  016%=      5-min Rain = 0
KEN1 191927Z 23018KT 25/M02 A2983 RMK A01 T02501023  RH  016%=      5-min Rain = 0
KEN1 191928Z 24015KT 25/M03 A2982 RMK A01 T02501028  RH  016%=      5-min Rain = 0
KEN1 191929Z 24016KT 25/M03 A2983 RMK A01 T02501030  RH  015%=      5-min Rain = 0
KEN1 191930Z 24016KT 25/M03 A2983 RMK A01 T02501031  RH  015%=      5-min Rain = 0
KEN1 191931Z 24015KT 25/M03 A2982 RMK A01 T02491029  RH  016%=      5-min Rain = 0
KEN1 191932Z 23015KT 25/M03 A2982 RMK A01 T02511026  RH  016%=      5-min Rain = 0
KEN1 191933Z 22015KT 25/M02 A2982 RMK A01 T02531024  RH  016%=      5-min Rain = 0
KEN1 191934Z 21018KT 26/M02 A2982 RMK A01 T02551023  RH  016%=      5-min Rain = 0
KEN1 191935Z 21025KT 25/M03 A2982 RMK A01 T02531025  RH  016%=      5-min Rain = 0
KEN1 191936Z 22020KT 25/M03 A2982 RMK A01 T02501026  RH  016%=      5-min Rain = 0
KEN1 191937Z 25019KT 25/M03 A2982 RMK A01 T02501026  RH  016%=      5-min Rain = 0
KEN1 191938Z 24016KT 25/M03 A2982 RMK A01 T02501026  RH  016%=      5-min Rain = 0
KEN1 191939Z 22014KT 25/M02 A2982 RMK A01 T02501024  RH  016%=      5-min Rain = 0
KEN1 191940Z 22018KT 25/M02 A2982 RMK A01 T02521022  RH  016%=      5-min Rain = 0
KEN1 191941Z 23017KT 25/M02 A2982 RMK A01 T02541024  RH  016%=      5-min Rain = 0
KEN1 191942Z 22014KT 25/M02 A2982 RMK A01 T02541024  RH  016%=      5-min Rain = 0
KEN1 191943Z 24011KT 26/M02 A2982 RMK A01 T02551024  RH  016%=      5-min Rain = 0
KEN1 191944Z 23018KT 26/M02 A2982 RMK A01 T02561024  RH  016%=      5-min Rain = 0
KEN1 191945Z 22019G24KT 26/M03 A2982 RMK A01 T02551025  RH  016%=      5-min Rain = 0
KEN1 191946Z 22020G25KT 25/M02 A2982 RMK A01 T02531024  RH  016%=      5-min Rain = 0
KEN1 191947Z 21019G25KT 25/M02 A2981 RMK A01 T02521024  RH  016%=      5-min Rain = 0
KEN1 191948Z 22020KT 25/M02 A2982 RMK A01 T02521024  RH  016%=      5-min Rain = 0
KEN1 191949Z 23020G25KT 25/M03 A2982 RMK A01 T02521025  RH  016%=      5-min Rain = 0
KEN1 191950Z 22022KT 25/M02 A2981 RMK A01 T02521024  RH  016%=      5-min Rain = 0
KEN1 191951Z 22018KT 25/M03 A2982 RMK A01 T02511025  RH  016%=      5-min Rain = 0
KEN1 191952Z 21020KT 25/M03 A2981 RMK A01 T02511025  RH  016%=      5-min Rain = 0
KEN1 191953Z 22020G25KT 25/M03 A2981 RMK A01 T02511025  RH  016%=      5-min Rain = 0
KEN1 191954Z 22018KT 25/M02 A2981 RMK A01 T02521024  RH  016%=      5-min Rain = 0
KEN1 191955Z 22023KT 25/M03 A2981 RMK A01 T02531025  RH  016%=      5-min Rain = 0
KEN1 191956Z 22019KT 25/M03 A2981 RMK A01 T02511026  RH  016%=      5-min Rain = 0
KEN1 191957Z 22018KT 25/M03 A2981 RMK A01 T02511025  RH  016%=      5-min Rain = 0
KEN1 191958Z 21019G26KT 25/M02 A2981 RMK A01 T02521024  RH  016%=      5-min Rain = 0
KEN1 191959Z 22024G30KT 25/M03 A2981 RMK A01 T02521025  RH  016%=      5-min Rain = 0
KEN1 192000Z 23020KT 25/M03 A2981 RMK A01 T02511026  RH  016%=      5-min Rain = 0
KEN1 192001Z 23016KT 25/M03 A2981 RMK A01 T02501027  RH  016%=      5-min Rain = 0
KEN1 192002Z 22020KT 25/M03 A2981 RMK A01 T02501026  RH  016%=      5-min Rain = 0
KEN1 192003Z 22019KT 25/M03 A2981 RMK A01 T02501026  RH  016%=      5-min Rain = 0
KEN1 192004Z 22018KT 25/M03 A2981 RMK A01 T02501026  RH  016%=      5-min Rain = 0
KEN1 192005Z 23017KT 25/M03 A2981 RMK A01 T02501026  RH  016%=      5-min Rain = 0
KEN1 192006Z 22018KT 25/M03 A2981 RMK A01 T02511025  RH  016%=      5-min Rain = 0
KEN1 192007Z 21017KT 25/M03 A298 RMK A01 T02521026  RH  016%=      5-min Rain = 0
KEN1 192008Z 21021KT 25/M02 A298 RMK A01 T02541023  RH  016%=      5-min Rain = 0
KEN1 192009Z 21019G27KT 27/M00 A298 RMK A01 T02721003  RH  017%=      5-min Rain = 0
KEN1 192010Z 23017G25KT 29/M01 A298 RMK A01 T02851014  RH  014%=      5-min Rain = 0
KEN1 192011Z 22018KT 27/M02 A298 RMK A01 T02721023  RH  014%=      5-min Rain = 0
KEN1 192012Z 22018KT 26/M03 A298 RMK A01 T02601027  RH  015%=      5-min Rain = 0
KEN1 192013Z 22021KT 25/M03 A298 RMK A01 T02541027  RH  015%=      5-min Rain = 0
KEN1 192014Z 21018KT 25/M03 A298 RMK A01 T02511026  RH  016%=      5-min Rain = 0
KEN1 192015Z 23020KT 25/M03 A298 RMK A01 T02511025  RH  016%=      5-min Rain = 0
KEN1 192016Z 22018KT 25/M03 A298 RMK A01 T02491027  RH  016%=      5-min Rain = 0
KEN1 192017Z 22016KT 25/M03 A298 RMK A01 T02481026  RH  016%=      5-min Rain = 0
KEN1 192018Z 22018KT 25/M02 A298 RMK A01 T02491024  RH  016%=      5-min Rain = 0
KEN1 192019Z 22019KT 25/M02 A298 RMK A01 T02501024  RH  016%=      5-min Rain = 0
KEN1 192020Z 22020KT 25/M03 A298 RMK A01 T02501026  RH  016%=      5-min Rain = 0
KEN1 192021Z 22019KT 25/M03 A298 RMK A01 T02501026  RH  016%=      5-min Rain = 0
KEN1 192022Z 22020KT 25/M03 A298 RMK A01 T02501026  RH  016%=      5-min Rain = 0
KEN1 192023Z 22022KT 25/M03 A298 RMK A01 T02491027  RH  016%=      5-min Rain = 0
KEN1 192024Z 23021KT 25/M03 A298 RMK A01 T02491028  RH  016%=      5-min Rain = 0
KEN1 192025Z 24017KT 25/M03 A298 RMK A01 T02491027  RH  016%=      5-min Rain = 0
KEN1 192026Z 23020G25KT 25/M03 A298 RMK A01 T02491027  RH  016%=      5-min Rain = 0
KEN1 192027Z 23019KT 25/M03 A298 RMK A01 T02491030  RH  016%=      5-min Rain = 0
KEN1 192028Z 23018KT 25/M03 A298 RMK A01 T02481029  RH  016%=      5-min Rain = 0
KEN1 192029Z 22020KT 25/M03 A298 RMK A01 T02471028  RH  016%=      5-min Rain = 0
KEN1 192030Z 21016KT 25/M03 A2979 RMK A01 T02471028  RH  016%=      5-min Rain = 0
KEN1 192031Z 21020KT 25/M03 A2979 RMK A01 T02481027  RH  016%=      5-min Rain = 0
KEN1 192032Z 21019KT 25/M03 A2979 RMK A01 T02491027  RH  016%=      5-min Rain = 0
KEN1 192033Z 22016KT 25/M03 A2979 RMK A01 T02491026  RH  016%=      5-min Rain = 0
KEN1 192034Z 22015KT 25/M03 A2979 RMK A01 T02501026  RH  016%=      5-min Rain = 0
KEN1 192035Z 23017KT 25/M03 A2979 RMK A01 T02511025  RH  016%=      5-min Rain = 0
KEN1 192036Z 23017KT 25/M03 A2979 RMK A01 T02521027  RH  016%=      5-min Rain = 0
KEN1 192037Z 23015KT 25/M03 A2979 RMK A01 T02511027  RH  016%=      5-min Rain = 0
KEN1 192038Z 23017KT 25/M03 A2979 RMK A01 T02511025  RH  016%=      5-min Rain = 0
KEN1 192039Z 23015KT 25/M03 A2979 RMK A01 T02521027  RH  016%=      5-min Rain = 0
KEN1 192040Z 22016KT 25/M03 A2979 RMK A01 T02521027  RH  016%=      5-min Rain = 0
KEN1 192041Z 22020KT 25/M03 A2979 RMK A01 T02521027  RH  016%=      5-min Rain = 0
KEN1 192042Z 22018KT 25/M03 A2979 RMK A01 T02511028  RH  016%=      5-min Rain = 0
KEN1 192043Z 22016KT 25/M03 A2979 RMK A01 T02501025  RH  016%=      5-min Rain = 0
KEN1 192044Z 22014KT 25/M02 A2979 RMK A01 T02501022  RH  017%=      5-min Rain = 0
KEN1 192045Z 22017G22KT 25/M02 A2979 RMK A01 T02491024  RH  016%=      5-min Rain = 0
KEN1 192046Z 22015KT 25/M02 A2979 RMK A01 T02491021  RH  017%=      5-min Rain = 0
KEN1 192047Z 21016KT 25/M03 A2979 RMK A01 T02481026  RH  016%=      5-min Rain = 0
KEN1 192048Z 21015KT 25/M03 A2979 RMK A01 T02481025  RH  016%=      5-min Rain = 0
KEN1 192049Z 22016KT 25/M03 A2979 RMK A01 T02501025  RH  016%=      5-min Rain = 0
KEN1 192050Z 23017KT 25/M03 A2979 RMK A01 T02511025  RH  016%=      5-min Rain = 0
KEN1 192051Z 22019KT 25/M03 A2979 RMK A01 T02521026  RH  016%=      5-min Rain = 0
KEN1 192052Z 22020G25KT 25/M03 A2979 RMK A01 T02511027  RH  016%=      5-min Rain = 0
KEN1 192053Z 22019KT 25/M03 A2979 RMK A01 T02511028  RH  016%=      5-min Rain = 0
KEN1 192054Z 21019KT 25/M03 A2979 RMK A01 T02511027  RH  016%=      5-min Rain = 0
KEN1 192055Z 21016KT 25/M03 A2979 RMK A01 T02521026  RH  016%=      5-min Rain = 0
KEN1 192056Z 22016KT 25/M03 A2979 RMK A01 T02531025  RH  016%=      5-min Rain = 0
KEN1 192057Z 22017G22KT 25/M03 A2979 RMK A01 T02531026  RH  016%=      5-min Rain = 0
KEN1 192058Z 22015KT 25/M03 A2979 RMK A01 T02531025  RH  016%=      5-min Rain = 0
KEN1 192059Z 22013KT 25/M03 A2979 RMK A01 T02541025  RH  016%=      5-min Rain = 0
KEN1 192100Z 23014KT 26/M03 A2979 RMK A01 T02551025  RH  016%=      5-min Rain = 0
KEN1 192101Z 22016G23KT 26/M02 A2979 RMK A01 T02551024  RH  016%=      5-min Rain = 0
KEN1 192102Z 22018KT 26/M03 A2978 RMK A01 T02561026  RH  015%=      5-min Rain = 0
KEN1 192103Z 22015KT 25/M03 A2978 RMK A01 T02541027  RH  015%=      5-min Rain = 0
KEN1 192104Z 23017KT 25/M03 A2978 RMK A01 T02531027  RH  016%=      5-min Rain = 0
KEN1 192105Z 23014KT 25/M03 A2978 RMK A01 T02531027  RH  016%=      5-min Rain = 0
KEN1 192106Z 22015G20KT 25/M03 A2978 RMK A01 T02531027  RH  016%=      5-min Rain = 0
KEN1 192107Z 22015G21KT 25/M03 A2978 RMK A01 T02521025  RH  016%=      5-min Rain = 0
KEN1 192108Z 22020KT 25/M03 A2978 RMK A01 T02511027  RH  016%=      5-min Rain = 0
KEN1 192109Z 22019KT 25/M03 A2978 RMK A01 T02491028  RH  016%=      5-min Rain = 0
KEN1 192110Z 21015KT 25/M03 A2978 RMK A01 T02471028  RH  016%=      5-min Rain = 0
KEN1 192111Z 21018KT 25/M03 A2978 RMK A01 T02461027  RH  016%=      5-min Rain = 0
KEN1 192112Z 22014KT 25/M03 A2978 RMK A01 T02461028  RH  016%=      5-min Rain = 0
KEN1 192113Z 22014KT 25/M03 A2978 RMK A01 T02451027  RH  016%=      5-min Rain = 0
KEN1 192114Z 22014KT 25/M03 A2978 RMK A01 T02461027  RH  016%=      5-min Rain = 0
KEN1 192115Z 21017KT 25/M03 A2978 RMK A01 T02471027  RH  016%=      5-min Rain = 0
KEN1 192116Z 21015KT 25/M03 A2978 RMK A01 T02481026  RH  016%=      5-min Rain = 0
KEN1 192117Z 21018KT 25/M03 A2978 RMK A01 T02491027  RH  016%=      5-min Rain = 0
KEN1 192118Z 21018KT 25/M03 A2978 RMK A01 T02491027  RH  016%=      5-min Rain = 0
KEN1 192119Z 21017KT 25/M03 A2978 RMK A01 T02501026  RH  016%=      5-min Rain = 0
KEN1 192120Z 22015KT 25/M03 A2978 RMK A01 T02501026  RH  016%=      5-min Rain = 0
KEN1 192121Z 22016KT 25/M03 A2978 RMK A01 T02501025  RH  016%=      5-min Rain = 0
KEN1 192122Z 22018KT 25/M03 A2978 RMK A01 T02501026  RH  016%=      5-min Rain = 0
KEN1 192123Z 22016KT 25/M03 A2978 RMK A01 T02511025  RH  016%=      5-min Rain = 0
KEN1 192124Z 22016KT 25/M03 A2978 RMK A01 T02511025  RH  016%=      5-min Rain = 0
KEN1 192125Z 22016KT 25/M03 A2978 RMK A01 T02521025  RH  016%=      5-min Rain = 0
KEN1 192126Z 22013G18KT 25/M03 A2978 RMK A01 T02521025  RH  016%=      5-min Rain = 0
KEN1 192127Z 20017KT 25/M02 A2978 RMK A01 T02521023  RH  016%=      5-min Rain = 0
KEN1 192128Z 22015KT 25/M02 A2977 RMK A01 T02531024  RH  016%=      5-min Rain = 0
KEN1 192129Z 22019KT 25/M02 A2977 RMK A01 T02541024  RH  016%=      5-min Rain = 0
KEN1 192130Z 22020KT 25/M03 A2977 RMK A01 T02531026  RH  016%=      5-min Rain = 0
KEN1 192131Z 22021KT 25/M03 A2977 RMK A01 T02521028  RH  016%=      5-min Rain = 0
KEN1 192132Z 22018KT 25/M03 A2978 RMK A01 T02511028  RH  016%=      5-min Rain = 0
KEN1 192133Z 22017KT 25/M03 A2977 RMK A01 T02511028  RH  016%=      5-min Rain = 0
KEN1 192134Z 21016KT 25/M03 A2977 RMK A01 T02521025  RH  016%=      5-min Rain = 0
KEN1 192135Z 21015KT 25/M03 A2977 RMK A01 T02521025  RH  016%=      5-min Rain = 0
KEN1 192136Z 21017KT 25/M02 A2977 RMK A01 T02521024  RH  016%=      5-min Rain = 0
KEN1 192137Z 22018KT 25/M02 A2977 RMK A01 T02521024  RH  016%=      5-min Rain = 0
KEN1 192138Z 22018KT 25/M03 A2977 RMK A01 T02521025  RH  016%=      5-min Rain = 0
KEN1 192139Z 21018KT 25/M03 A2977 RMK A01 T02511025  RH  016%=      5-min Rain = 0
KEN1 192140Z 22017KT 25/M03 A2977 RMK A01 T02501026  RH  016%=      5-min Rain = 0
KEN1 192141Z 21015KT 25/M03 A2977 RMK A01 T02501025  RH  016%=      5-min Rain = 0
KEN1 192142Z 20018KT 25/M02 A2977 RMK A01 T02501024  RH  016%=      5-min Rain = 0
KEN1 192143Z 20017KT 25/M03 A2977 RMK A01 T02501025  RH  016%=      5-min Rain = 0
KEN1 192144Z 21017G22KT 25/M02 A2977 RMK A01 T02511023  RH  016%=      5-min Rain = 0
KEN1 192145Z 21018KT 25/M03 A2977 RMK A01 T02511025  RH  016%=      5-min Rain = 0
KEN1 192146Z 21018KT 25/M03 A2977 RMK A01 T02481026  RH  016%=      5-min Rain = 0
KEN1 192147Z 21019KT 25/M03 A2977 RMK A01 T02461026  RH  016%=      5-min Rain = 0
KEN1 192148Z 21019KT 24/M03 A2977 RMK A01 T02441027  RH  016%=      5-min Rain = 0
KEN1 192149Z 21018KT 24/M03 A2977 RMK A01 T02431026  RH  017%=      5-min Rain = 0
KEN1 192150Z 22016KT 24/M03 A2977 RMK A01 T02431026  RH  017%=      5-min Rain = 0
KEN1 192151Z 22014KT 24/M03 A2977 RMK A01 T02431026  RH  017%=      5-min Rain = 0
KEN1 192152Z 21012KT 24/M03 A2977 RMK A01 T02441025  RH  017%=      5-min Rain = 0
KEN1 192153Z 21013KT 25/M02 A2977 RMK A01 T02451024  RH  017%=      5-min Rain = 0
KEN1 192154Z 20015KT 25/M03 A2977 RMK A01 T02461025  RH  016%=      5-min Rain = 0
KEN1 192155Z 21019KT 25/M03 A2977 RMK A01 T02471026  RH  016%=      5-min Rain = 0
KEN1 192156Z 20018KT 25/M03 A2977 RMK A01 T02481025  RH  016%=      5-min Rain = 0
KEN1 192157Z 21020KT 25/M03 A2977 RMK A01 T02481025  RH  016%=      5-min Rain = 0
KEN1 192158Z 21019G25KT 25/M03 A2977 RMK A01 T02491025  RH  016%=      5-min Rain = 0
KEN1 192159Z 21017G22KT 25/M03 A2977 RMK A01 T02491025  RH  016%=      5-min Rain = 0
KEN1 192200Z 22019KT 25/M03 A2977 RMK A01 T02491026  RH  016%=      5-min Rain = 0
KEN1 192201Z 21016KT 25/M03 A2977 RMK A01 T02491026  RH  016%=      5-min Rain = 0
KEN1 192202Z 21013KT 25/M02 A2977 RMK A01 T02491024  RH  016%=      5-min Rain = 0
KEN1 192203Z 20016KT 25/M02 A2977 RMK A01 T02491024  RH  016%=      5-min Rain = 0
KEN1 192204Z 20015KT 25/M02 A2977 RMK A01 T02491024  RH  016%=      5-min Rain = 0
KEN1 192205Z 21016KT 25/M02 A2977 RMK A01 T02491024  RH  016%=      5-min Rain = 0
KEN1 192206Z 21016KT 25/M03 A2977 RMK A01 T02491025  RH  016%=      5-min Rain = 0
KEN1 192207Z 21018KT 25/M03 A2977 RMK A01 T02491025  RH  016%=      5-min Rain = 0
KEN1 192208Z 21016KT 25/M03 A2977 RMK A01 T02481026  RH  016%=      5-min Rain = 0
KEN1 192209Z 20017KT 25/M02 A2977 RMK A01 T02481024  RH  016%=      5-min Rain = 0
KEN1 192210Z 21018KT 25/M03 A2977 RMK A01 T02471025  RH  016%=      5-min Rain = 0
KEN1 192211Z 21017KT 25/M03 A2976 RMK A01 T02471025  RH  016%=      5-min Rain = 0
KEN1 192212Z 21017G22KT 25/M03 A2976 RMK A01 T02461025  RH  016%=      5-min Rain = 0
KEN1 192213Z 21016KT 25/M03 A2977 RMK A01 T02461025  RH  016%=      5-min Rain = 0
KEN1 192214Z 21014G19KT 25/M02 A2977 RMK A01 T02461024  RH  017%=      5-min Rain = 0
KEN1 192215Z 21017KT 25/M02 A2976 RMK A01 T02471023  RH  017%=      5-min Rain = 0
KEN1 192216Z 21016KT 25/M02 A2977 RMK A01 T02471024  RH  016%=      5-min Rain = 0
KEN1 192217Z 21018KT 25/M02 A2976 RMK A01 T02471024  RH  016%=      5-min Rain = 0
KEN1 192218Z 21016KT 25/M02 A2976 RMK A01 T02471024  RH  016%=      5-min Rain = 0
KEN1 192219Z 21016KT 25/M02 A2977 RMK A01 T02471024  RH  016%=      5-min Rain = 0
KEN1 192220Z 21016KT 25/M02 A2976 RMK A01 T02471024  RH  016%=      5-min Rain = 0
KEN1 192221Z 21013KT 25/M02 A2977 RMK A01 T02471024  RH  016%=      5-min Rain = 0
KEN1 192222Z 21014KT 25/M02 A2977 RMK A01 T02471022  RH  017%=      5-min Rain = 0
KEN1 192223Z 21015KT 25/M02 A2977 RMK A01 T02481023  RH  017%=      5-min Rain = 0
KEN1 192224Z 21018KT 25/M02 A2976 RMK A01 T02481023  RH  017%=      5-min Rain = 0
KEN1 192225Z 20018KT 25/M02 A2976 RMK A01 T02471024  RH  016%=      5-min Rain = 0
KEN1 192226Z 21017KT 25/M02 A2976 RMK A01 T02461024  RH  016%=      5-min Rain = 0
KEN1 192227Z 21017KT 25/M02 A2976 RMK A01 T02461024  RH  017%=      5-min Rain = 0
KEN1 192228Z 21013KT 25/M02 A2976 RMK A01 T02461023  RH  017%=      5-min Rain = 0
KEN1 192229Z 20014KT 25/M02 A2976 RMK A01 T02461022  RH  017%=      5-min Rain = 0
KEN1 192230Z 20014KT 25/M02 A2976 RMK A01 T02461022  RH  017%=      5-min Rain = 0
KEN1 192231Z 20016KT 25/M02 A2976 RMK A01 T02461021  RH  017%=      5-min Rain = 0
KEN1 192232Z 20016KT 25/M02 A2976 RMK A01 T02451022  RH  017%=      5-min Rain = 0
KEN1 192233Z 20017G22KT 25/M02 A2976 RMK A01 T02451023  RH  017%=      5-min Rain = 0
KEN1 192234Z 21016KT 24/M02 A2976 RMK A01 T02441022  RH  017%=      5-min Rain = 0
KEN1 192235Z 20015KT 24/M02 A2976 RMK A01 T02441022  RH  017%=      5-min Rain = 0
KEN1 192236Z 20015KT 24/M02 A2976 RMK A01 T02431022  RH  017%=      5-min Rain = 0
KEN1 192237Z 20016KT 24/M02 A2976 RMK A01 T02411022  RH  017%=      5-min Rain = 0
KEN1 192238Z 20015KT 24/M02 A2976 RMK A01 T02411022  RH  017%=      5-min Rain = 0
KEN1 192239Z 20013KT 24/M02 A2976 RMK A01 T02401020  RH  018%=      5-min Rain = 0
KEN1 192240Z 20014KT 24/M02 A2976 RMK A01 T02391021  RH  018%=      5-min Rain = 0
KEN1 192241Z 19016KT 24/M02 A2976 RMK A01 T02391021  RH  018%=      5-min Rain = 0
KEN1 192242Z 20016KT 24/M02 A2976 RMK A01 T02381021  RH  018%=      5-min Rain = 0
KEN1 192243Z 20017KT 24/M02 A2976 RMK A01 T02381021  RH  018%=      5-min Rain = 0
KEN1 192244Z 20017KT 24/M02 A2976 RMK A01 T02371022  RH  018%=      5-min Rain = 0
KEN1 192245Z 20016KT 24/M02 A2976 RMK A01 T02371022  RH  018%=      5-min Rain = 0
KEN1 192246Z 20015KT 24/M02 A2976 RMK A01 T02371022  RH  018%=      5-min Rain = 0
KEN1 192247Z 20012KT 24/M02 A2976 RMK A01 T02371022  RH  018%=      5-min Rain = 0
KEN1 192248Z 20012KT 24/M02 A2976 RMK A01 T02361021  RH  018%=      5-min Rain = 0
KEN1 192249Z 20012KT 24/M02 A2976 RMK A01 T02361021  RH  018%=      5-min Rain = 0
KEN1 192250Z 20012KT 24/M02 A2976 RMK A01 T02361020  RH  018%=      5-min Rain = 0
KEN1 192251Z 21014KT 24/M02 A2976 RMK A01 T02351021  RH  018%=      5-min Rain = 0
KEN1 192252Z 21013KT 24/M02 A2976 RMK A01 T02351021  RH  018%=      5-min Rain = 0
KEN1 192253Z 20011KT 24/M02 A2976 RMK A01 T02351021  RH  018%=      5-min Rain = 0
KEN1 192254Z 20014KT 23/M02 A2976 RMK A01 T02341020  RH  018%=      5-min Rain = 0
KEN1 192255Z 20013KT 23/M02 A2976 RMK A01 T02331022  RH  018%=      5-min Rain = 0
KEN1 192256Z 20012KT 23/M02 A2976 RMK A01 T02341021  RH  018%=      5-min Rain = 0
KEN1 192257Z 20014KT 23/M02 A2976 RMK A01 T02341021  RH  018%=      5-min Rain = 0
KEN1 192258Z 20014KT 23/M02 A2976 RMK A01 T02331021  RH  018%=      5-min Rain = 0
KEN1 192259Z 20012KT 23/M02 A2976 RMK A01 T02331022  RH  018%=      5-min Rain = 0
KEN1 192300Z 20012KT 23/M02 A2976 RMK A01 T02321021  RH  018%=      5-min Rain = 0
KEN1 192301Z 20012KT 23/M02 A2976 RMK A01 T02311021  RH  019%=      5-min Rain = 0
KEN1 192302Z 20013KT 23/M02 A2976 RMK A01 T02301021  RH  019%=      5-min Rain = 0
KEN1 192303Z 20012KT 23/M02 A2976 RMK A01 T02301021  RH  019%=      5-min Rain = 0
KEN1 192304Z 20011KT 23/M02 A2976 RMK A01 T02291021  RH  019%=      5-min Rain = 0
KEN1 192305Z 19010KT 23/M02 A2977 RMK A01 T02291021  RH  019%=      5-min Rain = 0
KEN1 192306Z 19009KT 23/M02 A2977 RMK A01 T02271020  RH  019%=      5-min Rain = 0
KEN1 192307Z 19009KT 23/M02 A2977 RMK A01 T02271020  RH  019%=      5-min Rain = 0
KEN1 192308Z 19009KT 23/M02 A2977 RMK A01 T02261020  RH  019%=      5-min Rain = 0
KEN1 192309Z 19009KT 23/M02 A2977 RMK A01 T02251020  RH  019%=      5-min Rain = 0
KEN1 192310Z 19009KT 22/M02 A2977 RMK A01 T02241020  RH  020%=      5-min Rain = 0
KEN1 192311Z 18008KT 22/M02 A2977 RMK A01 T02231020  RH  020%=      5-min Rain = 0
KEN1 192312Z 19009KT 22/M02 A2977 RMK A01 T02231020  RH  020%=      5-min Rain = 0
KEN1 192313Z 19009KT 22/M02 A2977 RMK A01 T02211021  RH  020%=      5-min Rain = 0
KEN1 192314Z 19010KT 22/M02 A2977 RMK A01 T02201020  RH  020%=      5-min Rain = 0
KEN1 192315Z 18010KT 22/M02 A2977 RMK A01 T02191020  RH  020%=      5-min Rain = 0
KEN1 192316Z 18009KT 22/M02 A2977 RMK A01 T02161021  RH  020%=      5-min Rain = 0
KEN1 192317Z 18010KT 21/M02 A2977 RMK A01 T02141021  RH  021%=      5-min Rain = 0
KEN1 192318Z 18009KT 21/M02 A2977 RMK A01 T02121021  RH  021%=      5-min Rain = 0
KEN1 192319Z 17009KT 21/M02 A2977 RMK A01 T02101021  RH  021%=      5-min Rain = 0
KEN1 192320Z 17010KT 21/M02 A2977 RMK A01 T02091021  RH  021%=      5-min Rain = 0
KEN1 192321Z 17009KT 21/M02 A2977 RMK A01 T02081020  RH  022%=      5-min Rain = 0
KEN1 192322Z 18009KT 21/M02 A2977 RMK A01 T02061020  RH  022%=      5-min Rain = 0
KEN1 192323Z 18009KT 20/M02 A2977 RMK A01 T02041020  RH  022%=      5-min Rain = 0
KEN1 192324Z 18009KT 20/M02 A2977 RMK A01 T02021021  RH  022%=      5-min Rain = 0
KEN1 192325Z 18009KT 20/M02 A2977 RMK A01 T02011020  RH  022%=      5-min Rain = 0
KEN1 192326Z 18010KT 20/M02 A2977 RMK A01 T02001021  RH  023%=      5-min Rain = 0
KEN1 192327Z 18010KT 20/M02 A2977 RMK A01 T01991021  RH  023%=      5-min Rain = 0
KEN1 192328Z 18010KT 20/M02 A2977 RMK A01 T01981021  RH  023%=      5-min Rain = 0
KEN1 192329Z 17010KT 20/M02 A2977 RMK A01 T01971021  RH  023%=      5-min Rain = 0
KEN1 192330Z 17010KT 20/M02 A2977 RMK A01 T01971021  RH  023%=      5-min Rain = 0
KEN1 192331Z 17010KT 20/M02 A2977 RMK A01 T01961021  RH  023%=      5-min Rain = 0
KEN1 192332Z 17010KT 19/M02 A2977 RMK A01 T01941021  RH  023%=      5-min Rain = 0
KEN1 192333Z 17009KT 19/M02 A2977 RMK A01 T01931021  RH  023%=      5-min Rain = 0
KEN1 192334Z 17010KT 19/M02 A2977 RMK A01 T01921021  RH  024%=      5-min Rain = 0
KEN1 192335Z 17009KT 19/M02 A2977 RMK A01 T01911021  RH  024%=      5-min Rain = 0
KEN1 192336Z 16010KT 19/M02 A2977 RMK A01 T01891021  RH  024%=      5-min Rain = 0
KEN1 192337Z 17010KT 19/M02 A2977 RMK A01 T01881021  RH  024%=      5-min Rain = 0
KEN1 192338Z 17009KT 19/M02 A2977 RMK A01 T01871021  RH  024%=      5-min Rain = 0
KEN1 192339Z 16009KT 19/M02 A2977 RMK A01 T01871021  RH  024%=      5-min Rain = 0
KEN1 192340Z 16009KT 19/M02 A2977 RMK A01 T01861021  RH  024%=      5-min Rain = 0
KEN1 192341Z 16009KT 18/M02 A2977 RMK A01 T01841022  RH  025%=      5-min Rain = 0
KEN1 192342Z 16010KT 18/M02 A2977 RMK A01 T01831022  RH  025%=      5-min Rain = 0
KEN1 192343Z 16010KT 18/M02 A2977 RMK A01 T01831021  RH  025%=      5-min Rain = 0
KEN1 192344Z 16010KT 18/M02 A2977 RMK A01 T01821022  RH  025%=      5-min Rain = 0
KEN1 192345Z 15009KT 18/M02 A2977 RMK A01 T01811022  RH  025%=      5-min Rain = 0
KEN1 192346Z 15010KT 18/M02 A2977 RMK A01 T01801022  RH  025%=      5-min Rain = 0
KEN1 192347Z 15010KT 18/M02 A2977 RMK A01 T01791022  RH  025%=      5-min Rain = 0
KEN1 192348Z 15011KT 18/M02 A2977 RMK A01 T01781022  RH  026%=      5-min Rain = 0
KEN1 192349Z 15012KT 18/M02 A2977 RMK A01 T01781022  RH  026%=      5-min Rain = 0
KEN1 192350Z 15013KT 18/M02 A2977 RMK A01 T01781022  RH  025%=      5-min Rain = 0
KEN1 192351Z 16012KT 18/M02 A2977 RMK A01 T01801022  RH  025%=      5-min Rain = 0
KEN1 192352Z 16012KT 18/M02 A2977 RMK A01 T01821022  RH  025%=      5-min Rain = 0
KEN1 192353Z 16012KT 18/M02 A2977 RMK A01 T01831022  RH  025%=      5-min Rain = 0
KEN1 192354Z 16012KT 18/M02 A2977 RMK A01 T01831022  RH  025%=      5-min Rain = 0
KEN1 192355Z 16012KT 18/M02 A2977 RMK A01 T01831022  RH  025%=      5-min Rain = 0
KEN1 192356Z 16012KT 18/M02 A2977 RMK A01 T01811022  RH  025%=      5-min Rain = 0
KEN1 192357Z 16012KT 18/M02 A2977 RMK A01 T01801022  RH  025%=      5-min Rain = 0
KEN1 192358Z 16012KT 18/M02 A2977 RMK A01 T01791022  RH  025%=      5-min Rain = 0
KEN1 192359Z 17012KT 18/M02 A2977 RMK A01 T01791022  RH  025%=      5-min Rain = 0
KEN1 200000Z 17013KT 18/M02 A2978 RMK A01 T01791022  RH  025%=      5-min Rain = 0
KEN1 200001Z 17013KT 18/M02 A2978 RMK A01 T01791022  RH  025%=      5-min Rain = 0
KEN1 200002Z 17012KT 18/M02 A2977 RMK A01 T01791022  RH  025%=      5-min Rain = 0
KEN1 200003Z 17013KT 18/M02 A2978 RMK A01 T01801022  RH  025%=      5-min Rain = 0
KEN1 200004Z 17012KT 18/M02 A2978 RMK A01 T01811022  RH  025%=      5-min Rain = 0
KEN1 200005Z 17013KT 18/M02 A2978 RMK A01 T01811022  RH  025%=      5-min Rain = 0
KEN1 200006Z 17013KT 18/M02 A2978 RMK A01 T01801022  RH  025%=      5-min Rain = 0
KEN1 200007Z 17012KT 18/M02 A2978 RMK A01 T01791022  RH  025%=      5-min Rain = 0
KEN1 200008Z 17012KT 18/M02 A2978 RMK A01 T01781022  RH  026%=      5-min Rain = 0
KEN1 200009Z 17012KT 18/M02 A2978 RMK A01 T01751023  RH  026%=      5-min Rain = 0
KEN1 200010Z 17011KT 17/M02 A2978 RMK A01 T01741022  RH  026%=      5-min Rain = 0
KEN1 200011Z 17011KT 17/M02 A2978 RMK A01 T01721023  RH  026%=      5-min Rain = 0
KEN1 200012Z 17011KT 17/M02 A2978 RMK A01 T01711023  RH  027%=      5-min Rain = 0
KEN1 200013Z 17012KT 17/M02 A2978 RMK A01 T01711022  RH  027%=      5-min Rain = 0
KEN1 200014Z 17012KT 17/M02 A2978 RMK A01 T01711022  RH  027%=      5-min Rain = 0
KEN1 200015Z 17011KT 17/M02 A2978 RMK A01 T01701022  RH  027%=      5-min Rain = 0
KEN1 200016Z 17012KT 17/M02 A2978 RMK A01 T01701022  RH  027%=      5-min Rain = 0
KEN1 200017Z 17013KT 17/M02 A2978 RMK A01 T01691023  RH  027%=      5-min Rain = 0
KEN1 200018Z 17013KT 17/M02 A2978 RMK A01 T01701022  RH  027%=      5-min Rain = 0
KEN1 200019Z 17012KT 17/M02 A2978 RMK A01 T01701023  RH  027%=      5-min Rain = 0
KEN1 200020Z 17012KT 17/M02 A2978 RMK A01 T01701023  RH  027%=      5-min Rain = 0
KEN1 200021Z 17012KT 17/M02 A2978 RMK A01 T01701022  RH  027%=      5-min Rain = 0
KEN1 200022Z 17011KT 17/M02 A2978 RMK A01 T01701022  RH  027%=      5-min Rain = 0
KEN1 200023Z 17011KT 17/M02 A2978 RMK A01 T01701023  RH  027%=      5-min Rain = 0
KEN1 200024Z 17011KT 17/M02 A2978 RMK A01 T01701023  RH  027%=      5-min Rain = 0
KEN1 200025Z 18011KT 17/M02 A2978 RMK A01 T01691022  RH  027%=      5-min Rain = 0
KEN1 200026Z 18011KT 17/M02 A2978 RMK A01 T01681022  RH  027%=      5-min Rain = 0
KEN1 200027Z 17010KT 17/M02 A2978 RMK A01 T01671022  RH  027%=      5-min Rain = 0
KEN1 200028Z 18011KT 17/M02 A2978 RMK A01 T01671023  RH  027%=      5-min Rain = 0
KEN1 200029Z 18011KT 17/M02 A2978 RMK A01 T01661022  RH  027%=      5-min Rain = 0
KEN1 200030Z 18011KT 17/M02 A2978 RMK A01 T01661022  RH  028%=      5-min Rain = 0
KEN1 200031Z 17010KT 17/M02 A2978 RMK A01 T01651022  RH  028%=      5-min Rain = 0
KEN1 200032Z 17010KT 16/M02 A2978 RMK A01 T01641022  RH  028%=      5-min Rain = 0
KEN1 200033Z 17010KT 16/M02 A2978 RMK A01 T01631022  RH  028%=      5-min Rain = 0
KEN1 200034Z 17010KT 16/M02 A2978 RMK A01 T01611022  RH  028%=      5-min Rain = 0
KEN1 200035Z 18011KT 16/M02 A2978 RMK A01 T01601023  RH  028%=      5-min Rain = 0
KEN1 200036Z 17010KT 16/M02 A2978 RMK A01 T01591023  RH  029%=      5-min Rain = 0
KEN1 200037Z 17010KT 16/M02 A2978 RMK A01 T01591023  RH  029%=      5-min Rain = 0
KEN1 200038Z 17010KT 16/M02 A2978 RMK A01 T01591022  RH  029%=      5-min Rain = 0
KEN1 200039Z 17010KT 16/M02 A2978 RMK A01 T01581023  RH  029%=      5-min Rain = 0
KEN1 200040Z 17010KT 16/M02 A2978 RMK A01 T01571023  RH  029%=      5-min Rain = 0
KEN1 200041Z 17013KT 16/M02 A2978 RMK A01 T01561023  RH  029%=      5-min Rain = 0
KEN1 200042Z 17011KT 16/M02 A2977 RMK A01 T01561022  RH  029%=      5-min Rain = 0
KEN1 200043Z 18011KT 16/M02 A2978 RMK A01 T01561022  RH  029%=      5-min Rain = 0
KEN1 200044Z 17010KT 16/M02 A2978 RMK A01 T01561022  RH  029%=      5-min Rain = 0
KEN1 200045Z 18010KT 16/M02 A2978 RMK A01 T01551022  RH  030%=      5-min Rain = 0
KEN1 200046Z 18009KT 16/M02 A2978 RMK A01 T01551022  RH  030%=      5-min Rain = 0
KEN1 200047Z 18010KT 16/M02 A2978 RMK A01 T01551021  RH  030%=      5-min Rain = 0
KEN1 200048Z 18010KT 16/M02 A2978 RMK A01 T01551021  RH  030%=      5-min Rain = 0
KEN1 200049Z 18010KT 15/M02 A2978 RMK A01 T01541022  RH  030%=      5-min Rain = 0
KEN1 200050Z 18010KT 16/M02 A2978 RMK A01 T01551021  RH  030%=      5-min Rain = 0
KEN1 200051Z 18011KT 16/M02 A2978 RMK A01 T01551022  RH  030%=      5-min Rain = 0
KEN1 200052Z 18010KT 16/M02 A2978 RMK A01 T01551021  RH  030%=      5-min Rain = 0
KEN1 200053Z 18010KT 16/M02 A2978 RMK A01 T01561022  RH  029%=      5-min Rain = 0
KEN1 200054Z 18010KT 16/M02 A2978 RMK A01 T01581021  RH  029%=      5-min Rain = 0
KEN1 200055Z 18010KT 16/M02 A2978 RMK A01 T01601021  RH  029%=      5-min Rain = 0
KEN1 200056Z 18010KT 16/M02 A2978 RMK A01 T01611021  RH  029%=      5-min Rain = 0
KEN1 200057Z 17010KT 16/M02 A2978 RMK A01 T01601021  RH  029%=      5-min Rain = 0
KEN1 200058Z 18011KT 16/M02 A2978 RMK A01 T01611022  RH  029%=      5-min Rain = 0
KEN1 200059Z 17011KT 16/M02 A2978 RMK A01 T01611022  RH  028%=      5-min Rain = 0
KEN1 200100Z 17012KT 16/M02 A2978 RMK A01 T01631022  RH  028%=      5-min Rain = 0
KEN1 200101Z 17011KT 16/M02 A2978 RMK A01 T01641022  RH  028%=      5-min Rain = 0
KEN1 200102Z 17011KT 17/M02 A2978 RMK A01 T01651022  RH  028%=      5-min Rain = 0
KEN1 200103Z 17011KT 17/M02 A2978 RMK A01 T01661022  RH  028%=      5-min Rain = 0
KEN1 200104Z 17011KT 17/M02 A2978 RMK A01 T01651022  RH  028%=      5-min Rain = 0
KEN1 200105Z 17011KT 17/M02 A2977 RMK A01 T01651022  RH  028%=      5-min Rain = 0
KEN1 200106Z 17011KT 16/M02 A2978 RMK A01 T01641022  RH  028%=      5-min Rain = 0
KEN1 200107Z 17010KT 16/M02 A2978 RMK A01 T01641022  RH  028%=      5-min Rain = 0
KEN1 200108Z 17010KT 16/M02 A2978 RMK A01 T01621022  RH  028%=      5-min Rain = 0
KEN1 200109Z 17010KT 16/M02 A2977 RMK A01 T01611022  RH  028%=      5-min Rain = 0
KEN1 200110Z 17010KT 16/M02 A2977 RMK A01 T01601022  RH  029%=      5-min Rain = 0
KEN1 200111Z 17009KT 16/M02 A2977 RMK A01 T01591022  RH  029%=      5-min Rain = 0
KEN1 200112Z 17009KT 16/M02 A2977 RMK A01 T01591022  RH  029%=      5-min Rain = 0
KEN1 200113Z 17009KT 16/M02 A2977 RMK A01 T01581022  RH  029%=      5-min Rain = 0
KEN1 200114Z 18009KT 16/M02 A2977 RMK A01 T01571022  RH  029%=      5-min Rain = 0
KEN1 200115Z 18008KT 16/M02 A2977 RMK A01 T01561022  RH  029%=      5-min Rain = 0
KEN1 200116Z 18008KT 15/M02 A2977 RMK A01 T01541022  RH  030%=      5-min Rain = 0
KEN1 200117Z 18008KT 15/M02 A2977 RMK A01 T01511022  RH  030%=      5-min Rain = 0
KEN1 200118Z 18008KT 15/M02 A2977 RMK A01 T01491022  RH  031%=      5-min Rain = 0
KEN1 200119Z 18008KT 15/M02 A2977 RMK A01 T01481022  RH  031%=      5-min Rain = 0
KEN1 200120Z 18008KT 15/M02 A2977 RMK A01 T01471021  RH  031%=      5-min Rain = 0
KEN1 200121Z 18008KT 15/M02 A2978 RMK A01 T01461021  RH  032%=      5-min Rain = 0
KEN1 200122Z 18008KT 14/M02 A2978 RMK A01 T01441022  RH  032%=      5-min Rain = 0
KEN1 200123Z 18008KT 14/M02 A2978 RMK A01 T01431022  RH  032%=      5-min Rain = 0
KEN1 200124Z 17008KT 14/M02 A2978 RMK A01 T01431022  RH  032%=      5-min Rain = 0
KEN1 200125Z 17008KT 14/M02 A2978 RMK A01 T01421022  RH  032%=      5-min Rain = 0
KEN1 200126Z 17008KT 14/M02 A2978 RMK A01 T01421021  RH  032%=      5-min Rain = 0
KEN1 200127Z 17008KT 14/M02 A2978 RMK A01 T01401022  RH  032%=      5-min Rain = 0
KEN1 200128Z 17009KT 14/M02 A2978 RMK A01 T01411022  RH  033%=      5-min Rain = 0
KEN1 200129Z 17010KT 14/M02 A2978 RMK A01 T01421021  RH  032%=      5-min Rain = 0
KEN1 200130Z 18010KT 14/M02 A2978 RMK A01 T01431021  RH  032%=      5-min Rain = 0
KEN1 200131Z 18010KT 14/M02 A2978 RMK A01 T01441020  RH  032%=      5-min Rain = 0
KEN1 200132Z 18010KT 14/M02 A2978 RMK A01 T01441020  RH  032%=      5-min Rain = 0
KEN1 200133Z 17010KT 14/M02 A2978 RMK A01 T01441019  RH  032%=      5-min Rain = 0
KEN1 200134Z 18010KT 15/M02 A2978 RMK A01 T01451019  RH  032%=      5-min Rain = 0
KEN1 200135Z 18011KT 15/M02 A2978 RMK A01 T01451019  RH  032%=      5-min Rain = 0
KEN1 200136Z 18010KT 15/M02 A2978 RMK A01 T01451019  RH  032%=      5-min Rain = 0
KEN1 200137Z 18010KT 15/M02 A2978 RMK A01 T01461019  RH  032%=      5-min Rain = 0
KEN1 200138Z 18011KT 15/M02 A2978 RMK A01 T01461018  RH  032%=      5-min Rain = 0
KEN1 200139Z 17010KT 15/M02 A2978 RMK A01 T01461018  RH  032%=      5-min Rain = 0
KEN1 200140Z 17009KT 15/M02 A2978 RMK A01 T01461018  RH  032%=      5-min Rain = 0
KEN1 200141Z 17009KT 15/M02 A2978 RMK A01 T01451019  RH  032%=      5-min Rain = 0
KEN1 200142Z 17009KT 14/M02 A2978 RMK A01 T01441018  RH  033%=      5-min Rain = 0
KEN1 200143Z 17009KT 14/M02 A2978 RMK A01 T01441018  RH  033%=      5-min Rain = 0
KEN1 200144Z 17009KT 14/M02 A2978 RMK A01 T01431019  RH  033%=      5-min Rain = 0
KEN1 200145Z 17009KT 14/M02 A2978 RMK A01 T01431019  RH  033%=      5-min Rain = 0
KEN1 200146Z 16010KT 14/M02 A2978 RMK A01 T01441019  RH  033%=      5-min Rain = 0
KEN1 200147Z 16009KT 14/M02 A2978 RMK A01 T01431019  RH  033%=      5-min Rain = 0
KEN1 200148Z 16009KT 14/M02 A2978 RMK A01 T01431019  RH  033%=      5-min Rain = 0
KEN1 200149Z 16009KT 14/M02 A2978 RMK A01 T01431019  RH  033%=      5-min Rain = 0
KEN1 200150Z 16009KT 14/M02 A2978 RMK A01 T01421019  RH  033%=      5-min Rain = 0
KEN1 200151Z 16008KT 14/M02 A2978 RMK A01 T01421019  RH  033%=      5-min Rain = 0
KEN1 200152Z 16008KT 14/M02 A2978 RMK A01 T01421019  RH  033%=      5-min Rain = 0
KEN1 200153Z 16008KT 14/M02 A2978 RMK A01 T01421019  RH  033%=      5-min Rain = 0
KEN1 200154Z 16007KT 14/M02 A2978 RMK A01 T01421019  RH  033%=      5-min Rain = 0
KEN1 200155Z 15008KT 14/M02 A2978 RMK A01 T01411019  RH  033%=      5-min Rain = 0
KEN1 200156Z 15008KT 14/M02 A2978 RMK A01 T01401019  RH  033%=      5-min Rain = 0
KEN1 200157Z 15008KT 14/M02 A2978 RMK A01 T01391019  RH  034%=      5-min Rain = 0
KEN1 200158Z 15008KT 14/M02 A2978 RMK A01 T01381019  RH  034%=      5-min Rain = 0
KEN1 200159Z 15008KT 14/M02 A2978 RMK A01 T01371019  RH  034%=      5-min Rain = 0
KEN1 200200Z 14008KT 14/M02 A2978 RMK A01 T01361019  RH  034%=      5-min Rain = 0
KEN1 200201Z 14008KT 14/M02 A2978 RMK A01 T01351019  RH  034%=      5-min Rain = 0
KEN1 200202Z 14007KT 13/M02 A2978 RMK A01 T01341018  RH  035%=      5-min Rain = 0
KEN1 200203Z 14007KT 13/M02 A2978 RMK A01 T01321019  RH  035%=      5-min Rain = 0
KEN1 200204Z 15007KT 13/M02 A2978 RMK A01 T01301019  RH  036%=      5-min Rain = 0
KEN1 200205Z 15006KT 13/M02 A2978 RMK A01 T01291019  RH  036%=      5-min Rain = 0
KEN1 200206Z 15006KT 13/M02 A2978 RMK A01 T01291018  RH  036%=      5-min Rain = 0
KEN1 200207Z 16006KT 13/M02 A2978 RMK A01 T01291018  RH  036%=      5-min Rain = 0
KEN1 200208Z 17006KT 13/M02 A2978 RMK A01 T01281019  RH  036%=      5-min Rain = 0
KEN1 200209Z 18006KT 13/M02 A2978 RMK A01 T01271019  RH  036%=      5-min Rain = 0
KEN1 200210Z 19007KT 13/M02 A2978 RMK A01 T01271019  RH  036%=      5-min Rain = 0
KEN1 200211Z 19008KT 13/M02 A2978 RMK A01 T01271019  RH  036%=      5-min Rain = 0
KEN1 200212Z 19009KT 13/M02 A2978 RMK A01 T01321017  RH  035%=      5-min Rain = 0
KEN1 200213Z 18008KT 14/M02 A2978 RMK A01 T01391017  RH  034%=      5-min Rain = 0
KEN1 200214Z 18008KT 14/M02 A2978 RMK A01 T01421018  RH  033%=      5-min Rain = 0
KEN1 200215Z 18008KT 14/M02 A2978 RMK A01 T01441018  RH  033%=      5-min Rain = 0
KEN1 200216Z 19010KT 15/M02 A2978 RMK A01 T01451018  RH  033%=      5-min Rain = 0
KEN1 200217Z 19011KT 15/M02 A2978 RMK A01 T01461018  RH  032%=      5-min Rain = 0
KEN1 200218Z 19009KT 15/M02 A2978 RMK A01 T01491018  RH  032%=      5-min Rain = 0
KEN1 200219Z 19010KT 15/M02 A2978 RMK A01 T01501018  RH  032%=      5-min Rain = 0
KEN1 200220Z 19010KT 15/M02 A2978 RMK A01 T01501018  RH  031%=      5-min Rain = 0
KEN1 200221Z 19011KT 15/M02 A2978 RMK A01 T01501018  RH  031%=      5-min Rain = 0
KEN1 200222Z 18011KT 15/M02 A2978 RMK A01 T01511018  RH  031%=      5-min Rain = 0
KEN1 200223Z 18010KT 15/M02 A2978 RMK A01 T01511018  RH  031%=      5-min Rain = 0
KEN1 200224Z 18009KT 15/M02 A2978 RMK A01 T01511018  RH  031%=      5-min Rain = 0
KEN1 200225Z 18010KT 15/M02 A2978 RMK A01 T01501018  RH  031%=      5-min Rain = 0
KEN1 200226Z 18011KT 15/M02 A2978 RMK A01 T01481018  RH  032%=      5-min Rain = 0
KEN1 200227Z 18011KT 15/M02 A2978 RMK A01 T01471018  RH  032%=      5-min Rain = 0
KEN1 200228Z 18012KT 15/M02 A2978 RMK A01 T01461017  RH  032%=      5-min Rain = 0
KEN1 200229Z 18011KT 15/M02 A2978 RMK A01 T01461017  RH  032%=      5-min Rain = 0
KEN1 200230Z 18011KT 15/M02 A2978 RMK A01 T01461017  RH  032%=      5-min Rain = 0
KEN1 200231Z 18010KT 15/M02 A2978 RMK A01 T01461017  RH  032%=      5-min Rain = 0
KEN1 200232Z 18011KT 15/M02 A2978 RMK A01 T01461017  RH  032%=      5-min Rain = 0
KEN1 200233Z 18011KT 15/M02 A2978 RMK A01 T01471017  RH  032%=      5-min Rain = 0
KEN1 200234Z 18011KT 15/M02 A2978 RMK A01 T01461017  RH  032%=      5-min Rain = 0
KEN1 200235Z 18011KT 15/M02 A2978 RMK A01 T01461017  RH  032%=      5-min Rain = 0
KEN1 200236Z 18011KT 15/M02 A2978 RMK A01 T01461017  RH  033%=      5-min Rain = 0
KEN1 200237Z 18011KT 15/M02 A2978 RMK A01 T01471017  RH  032%=      5-min Rain = 0
KEN1 200238Z 18012KT 15/M02 A2978 RMK A01 T01471017  RH  032%=      5-min Rain = 0
KEN1 200239Z 18012KT 15/M02 A2978 RMK A01 T01471017  RH  032%=      5-min Rain = 0
KEN1 200240Z 18012KT 15/M02 A2979 RMK A01 T01471016  RH  032%=      5-min Rain = 0
KEN1 200241Z 18012KT 15/M02 A2979 RMK A01 T01471016  RH  033%=      5-min Rain = 0
KEN1 200242Z 18012KT 15/M02 A2979 RMK A01 T01461016  RH  033%=      5-min Rain = 0
KEN1 200243Z 18013KT 15/M02 A2979 RMK A01 T01461016  RH  033%=      5-min Rain = 0
KEN1 200244Z 18013KT 15/M02 A2979 RMK A01 T01461016  RH  033%=      5-min Rain = 0
KEN1 200245Z 18013KT 15/M02 A2979 RMK A01 T01451016  RH  033%=      5-min Rain = 0
KEN1 200246Z 18013KT 14/M02 A2979 RMK A01 T01441017  RH  033%=      5-min Rain = 0
KEN1 200247Z 18012KT 14/M02 A2979 RMK A01 T01441016  RH  033%=      5-min Rain = 0
KEN1 200248Z 18013KT 14/M02 A2979 RMK A01 T01441016  RH  033%=      5-min Rain = 0
KEN1 200249Z 18013KT 14/M02 A2979 RMK A01 T01431016  RH  033%=      5-min Rain = 0
KEN1 200250Z 18013KT 14/M02 A2979 RMK A01 T01431016  RH  033%=      5-min Rain = 0
KEN1 200251Z 18013KT 14/M02 A2979 RMK A01 T01431016  RH  033%=      5-min Rain = 0
KEN1 200252Z 18013KT 14/M02 A2979 RMK A01 T01431016  RH  033%=      5-min Rain = 0
KEN1 200253Z 18012KT 14/M02 A2979 RMK A01 T01431016  RH  033%=      5-min Rain = 0
KEN1 200254Z 17013KT 14/M02 A2979 RMK A01 T01431016  RH  033%=      5-min Rain = 0
KEN1 200255Z 17013KT 15/M02 A2979 RMK A01 T01451016  RH  033%=      5-min Rain = 0
KEN1 200256Z 17013KT 15/M02 A2979 RMK A01 T01461016  RH  033%=      5-min Rain = 0
KEN1 200257Z 17013KT 15/M02 A2979 RMK A01 T01461015  RH  033%=      5-min Rain = 0
KEN1 200258Z 17013KT 15/M02 A2979 RMK A01 T01461016  RH  033%=      5-min Rain = 0
KEN1 200259Z 17013KT 15/M02 A2979 RMK A01 T01471016  RH  033%=      5-min Rain = 0
KEN1 200300Z 17012KT 15/M02 A2979 RMK A01 T01471015  RH  033%=      5-min Rain = 0
KEN1 200301Z 18011KT 15/M02 A2979 RMK A01 T01461015  RH  033%=      5-min Rain = 0
KEN1 200302Z 18012KT 15/M02 A2979 RMK A01 T01451015  RH  033%=      5-min Rain = 0
KEN1 200303Z 18012KT 14/M02 A2979 RMK A01 T01441015  RH  033%=      5-min Rain = 0
KEN1 200304Z 18012KT 14/M02 A2979 RMK A01 T01441015  RH  034%=      5-min Rain = 0
KEN1 200305Z 18011KT 14/M01 A2979 RMK A01 T01441014  RH  034%=      5-min Rain = 0
KEN1 200306Z 18011KT 14/M01 A2979 RMK A01 T01431014  RH  034%=      5-min Rain = 0
KEN1 200307Z 18011KT 14/M01 A2978 RMK A01 T01421014  RH  034%=      5-min Rain = 0
KEN1 200308Z 18012KT 14/M01 A2978 RMK A01 T01421014  RH  034%=      5-min Rain = 0
KEN1 200309Z 18011KT 14/M01 A2979 RMK A01 T01431013  RH  034%=      5-min Rain = 0
KEN1 200310Z 18012KT 14/M01 A2979 RMK A01 T01431013  RH  034%=      5-min Rain = 0
KEN1 200311Z 17011KT 14/M01 A2979 RMK A01 T01431014  RH  034%=      5-min Rain = 0
KEN1 200312Z 18010KT 14/M01 A2979 RMK A01 T01431014  RH  034%=      5-min Rain = 0
KEN1 200313Z 17010KT 14/M01 A2979 RMK A01 T01431014  RH  034%=      5-min Rain = 0
KEN1 200314Z 18010KT 14/M01 A2979 RMK A01 T01411014  RH  034%=      5-min Rain = 0
KEN1 200315Z 18011KT 14/M01 A2979 RMK A01 T01391014  RH  035%=      5-min Rain = 0
KEN1 200316Z 18012KT 14/M01 A2979 RMK A01 T01381014  RH  035%=      5-min Rain = 0
KEN1 200317Z 19013KT 14/M01 A2979 RMK A01 T01371014  RH  035%=      5-min Rain = 0
KEN1 200318Z 18013KT 14/M01 A2979 RMK A01 T01381013  RH  035%=      5-min Rain = 0
KEN1 200319Z 18014KT 14/M01 A2979 RMK A01 T01391013  RH  035%=      5-min Rain = 0
KEN1 200320Z 19014KT 14/M01 A2979 RMK A01 T01391013  RH  035%=      5-min Rain = 0
KEN1 200321Z 19012KT 14/M01 A2979 RMK A01 T01391013  RH  035%=      5-min Rain = 0
KEN1 200322Z 18012KT 14/M01 A2979 RMK A01 T01401013  RH  035%=      5-min Rain = 0
KEN1 200323Z 18012KT 14/M01 A2979 RMK A01 T01411013  RH  035%=      5-min Rain = 0
KEN1 200324Z 18011KT 14/M01 A2979 RMK A01 T01421013  RH  034%=      5-min Rain = 0
KEN1 200325Z 18012KT 14/M01 A2979 RMK A01 T01421013  RH  034%=      5-min Rain = 0
KEN1 200326Z 19012KT 14/M01 A2979 RMK A01 T01411013  RH  034%=      5-min Rain = 0
KEN1 200327Z 19012KT 14/M01 A2979 RMK A01 T01431013  RH  034%=      5-min Rain = 0
KEN1 200328Z 19013KT 15/M01 A2979 RMK A01 T01461012  RH  034%=      5-min Rain = 0
KEN1 200329Z 19014KT 15/M01 A2979 RMK A01 T01511012  RH  033%=      5-min Rain = 0
KEN1 200330Z 19014KT 15/M01 A2979 RMK A01 T01541012  RH  032%=      5-min Rain = 0
KEN1 200331Z 19013KT 16/M01 A2979 RMK A01 T01561012  RH  031%=      5-min Rain = 0
KEN1 200332Z 19012KT 16/M01 A2979 RMK A01 T01571013  RH  031%=      5-min Rain = 0
KEN1 200333Z 19011KT 16/M01 A2979 RMK A01 T01561013  RH  031%=      5-min Rain = 0
KEN1 200334Z 18011KT 16/M01 A2979 RMK A01 T01551013  RH  032%=      5-min Rain = 0
KEN1 200335Z 18010KT 15/M01 A2979 RMK A01 T01541013  RH  032%=      5-min Rain = 0
KEN1 200336Z 18010KT 15/M01 A2979 RMK A01 T01531013  RH  032%=      5-min Rain = 0
KEN1 200337Z 19010KT 15/M01 A2979 RMK A01 T01541013  RH  032%=      5-min Rain = 0
KEN1 200338Z 19010KT 15/M01 A2979 RMK A01 T01541013  RH  032%=      5-min Rain = 0
KEN1 200339Z 18009KT 15/M01 A2979 RMK A01 T01531013  RH  032%=      5-min Rain = 0
KEN1 200340Z 18009KT 15/M01 A2979 RMK A01 T01531014  RH  032%=      5-min Rain = 0
KEN1 200341Z 18010KT 15/M01 A2979 RMK A01 T01521014  RH  032%=      5-min Rain = 0
KEN1 200342Z 18011KT 15/M01 A2979 RMK A01 T01511014  RH  032%=      5-min Rain = 0
KEN1 200343Z 18010KT 15/M01 A2979 RMK A01 T01511014  RH  032%=      5-min Rain = 0
KEN1 200344Z 18011KT 15/M01 A2979 RMK A01 T01511014  RH  032%=      5-min Rain = 0
KEN1 200345Z 18009KT 15/M01 A2979 RMK A01 T01511014  RH  032%=      5-min Rain = 0
KEN1 200346Z 18010KT 15/M01 A2979 RMK A01 T01501014  RH  032%=      5-min Rain = 0
KEN1 200347Z 19011KT 15/M01 A2979 RMK A01 T01501014  RH  032%=      5-min Rain = 0
KEN1 200348Z 18011KT 15/M01 A2979 RMK A01 T01501014  RH  032%=      5-min Rain = 0
KEN1 200349Z 19012KT 15/M01 A2979 RMK A01 T01501014  RH  032%=      5-min Rain = 0
KEN1 200350Z 18012KT 15/M01 A2979 RMK A01 T01501014  RH  032%=      5-min Rain = 0
KEN1 200351Z 18013KT 15/M01 A2978 RMK A01 T01501014  RH  032%=      5-min Rain = 0
KEN1 200352Z 19013KT 15/M01 A2978 RMK A01 T01511014  RH  032%=      5-min Rain = 0
KEN1 200353Z 19014KT 15/M01 A2979 RMK A01 T01521014  RH  032%=      5-min Rain = 0
KEN1 200354Z 19013KT 15/M01 A2979 RMK A01 T01521014  RH  032%=      5-min Rain = 0
KEN1 200355Z 19013KT 15/M01 A2979 RMK A01 T01521014  RH  032%=      5-min Rain = 0
KEN1 200356Z 19012KT 15/M01 A2979 RMK A01 T01521014  RH  032%=      5-min Rain = 0
KEN1 200357Z 19013KT 15/M01 A2979 RMK A01 T01521014  RH  032%=      5-min Rain = 0
KEN1 200358Z 19013KT 15/M01 A2979 RMK A01 T01511013  RH  032%=      5-min Rain = 0
KEN1 200359Z 19013KT 15/M01 A2979 RMK A01 T01511013  RH  032%=      5-min Rain = 0
KEN1 200400Z 19012KT 15/M01 A2979 RMK A01 T01511013  RH  032%=      5-min Rain = 0
KEN1 200401Z 20015KT 15/M01 A2978 RMK A01 T01501014  RH  032%=      5-min Rain = 0
KEN1 200402Z 20013KT 15/M01 A2978 RMK A01 T01501013  RH  032%=      5-min Rain = 0
KEN1 200403Z 20014KT 15/M01 A2978 RMK A01 T01511013  RH  032%=      5-min Rain = 0
KEN1 200404Z 20015KT 15/M01 A2978 RMK A01 T01501013  RH  032%=      5-min Rain = 0
KEN1 200405Z 20013KT 15/M01 A2978 RMK A01 T01501014  RH  032%=      5-min Rain = 0
KEN1 200406Z 20015KT 15/M01 A2978 RMK A01 T01501014  RH  032%=      5-min Rain = 0
KEN1 200407Z 20014KT 15/M01 A2978 RMK A01 T01501014  RH  033%=      5-min Rain = 0
KEN1 200408Z 20013KT 15/M01 A2978 RMK A01 T01501014  RH  033%=      5-min Rain = 0
KEN1 200409Z 20014KT 15/M01 A2978 RMK A01 T01491014  RH  033%=      5-min Rain = 0
KEN1 200410Z 20013KT 15/M01 A2978 RMK A01 T01491014  RH  033%=      5-min Rain = 0
KEN1 200411Z 20014KT 15/M01 A2979 RMK A01 T01491014  RH  033%=      5-min Rain = 0
KEN1 200412Z 20013KT 15/M01 A2979 RMK A01 T01481014  RH  033%=      5-min Rain = 0
KEN1 200413Z 20014KT 15/M01 A2978 RMK A01 T01481014  RH  033%=      5-min Rain = 0
KEN1 200414Z 20012KT 15/M01 A2978 RMK A01 T01481014  RH  033%=      5-min Rain = 0
KEN1 200415Z 20013KT 15/M01 A2979 RMK A01 T01481014  RH  033%=      5-min Rain = 0
KEN1 200416Z 20011KT 15/M02 A2979 RMK A01 T01471015  RH  033%=      5-min Rain = 0
KEN1 200417Z 20013KT 15/M01 A2979 RMK A01 T01471014  RH  033%=      5-min Rain = 0
KEN1 200418Z 20012KT 15/M01 A2979 RMK A01 T01471014  RH  033%=      5-min Rain = 0
KEN1 200419Z 19012KT 15/M01 A2979 RMK A01 T01461014  RH  033%=      5-min Rain = 0
KEN1 200420Z 19013KT 15/M01 A2978 RMK A01 T01461014  RH  033%=      5-min Rain = 0
KEN1 200421Z 19012KT 15/M01 A2978 RMK A01 T01461014  RH  033%=      5-min Rain = 0
KEN1 200422Z 19012KT 15/M01 A2978 RMK A01 T01461014  RH  033%=      5-min Rain = 0
KEN1 200423Z 19013KT 15/M01 A2978 RMK A01 T01461014  RH  033%=      5-min Rain = 0
KEN1 200424Z 19013KT 15/M01 A2978 RMK A01 T01461014  RH  033%=      5-min Rain = 0
KEN1 200425Z 19013KT 15/M01 A2978 RMK A01 T01461014  RH  033%=      5-min Rain = 0
KEN1 200426Z 19013KT 15/M01 A2978 RMK A01 T01461014  RH  033%=      5-min Rain = 0
KEN1 200427Z 19012KT 15/M02 A2978 RMK A01 T01461015  RH  033%=      5-min Rain = 0
KEN1 200428Z 19011KT 15/M01 A2978 RMK A01 T01461014  RH  033%=      5-min Rain = 0
KEN1 200429Z 19011KT 15/M01 A2978 RMK A01 T01461014  RH  033%=      5-min Rain = 0
KEN1 200430Z 20012KT 15/M01 A2978 RMK A01 T01451014  RH  033%=      5-min Rain = 0
KEN1 200431Z 20011KT 15/M01 A2978 RMK A01 T01451014  RH  034%=      5-min Rain = 0
KEN1 200432Z 19012KT 14/M01 A2978 RMK A01 T01441014  RH  034%=      5-min Rain = 0
KEN1 200433Z 20012KT 14/M01 A2978 RMK A01 T01441014  RH  034%=      5-min Rain = 0
KEN1 200434Z 20011KT 14/M01 A2978 RMK A01 T01441014  RH  034%=      5-min Rain = 0
KEN1 200435Z 20012KT 14/M01 A2978 RMK A01 T01431014  RH  034%=      5-min Rain = 0
KEN1 200436Z 20012KT 14/M02 A2978 RMK A01 T01431015  RH  034%=      5-min Rain = 0
KEN1 200437Z 20012KT 14/M01 A2978 RMK A01 T01441014  RH  034%=      5-min Rain = 0
KEN1 200438Z 20012KT 14/M01 A2978 RMK A01 T01431014  RH  034%=      5-min Rain = 0
KEN1 200439Z 20013KT 14/M02 A2978 RMK A01 T01431015  RH  034%=      5-min Rain = 0
KEN1 200440Z 20014KT 14/M02 A2978 RMK A01 T01431015  RH  034%=      5-min Rain = 0
KEN1 200441Z 20013KT 14/M02 A2978 RMK A01 T01431015  RH  034%=      5-min Rain = 0
KEN1 200442Z 20014KT 14/M02 A2978 RMK A01 T01431015  RH  034%=      5-min Rain = 0
KEN1 200443Z 19013KT 14/M02 A2978 RMK A01 T01431016  RH  034%=      5-min Rain = 0
KEN1 200444Z 20012KT 14/M02 A2978 RMK A01 T01431015  RH  034%=      5-min Rain = 0
KEN1 200445Z 20014KT 14/M02 A2978 RMK A01 T01421015  RH  034%=      5-min Rain = 0
KEN1 200446Z 20013KT 14/M02 A2978 RMK A01 T01421016  RH  034%=      5-min Rain = 0
KEN1 200447Z 20013KT 14/M02 A2978 RMK A01 T01421016  RH  034%=      5-min Rain = 0
KEN1 200448Z 20013KT 14/M02 A2978 RMK A01 T01421016  RH  034%=      5-min Rain = 0
KEN1 200449Z 20013KT 14/M02 A2978 RMK A01 T01421017  RH  034%=      5-min Rain = 0
KEN1 200450Z 20014KT 14/M02 A2978 RMK A01 T01421016  RH  034%=      5-min Rain = 0
KEN1 200451Z 20013KT 14/M02 A2978 RMK A01 T01421017  RH  034%=      5-min Rain = 0
KEN1 200452Z 20014KT 14/M02 A2978 RMK A01 T01421017  RH  033%=      5-min Rain = 0
KEN1 200453Z 20014KT 14/M02 A2978 RMK A01 T01421017  RH  033%=      5-min Rain = 0
KEN1 200454Z 20014KT 14/M02 A2978 RMK A01 T01421017  RH  033%=      5-min Rain = 0
KEN1 200455Z 20014KT 14/M02 A2978 RMK A01 T01421017  RH  033%=      5-min Rain = 0
KEN1 200456Z 19012KT 14/M02 A2978 RMK A01 T01421017  RH  033%=      5-min Rain = 0
KEN1 200457Z 20013KT 14/M02 A2978 RMK A01 T01421017  RH  033%=      5-min Rain = 0
KEN1 200458Z 20014KT 14/M02 A2978 RMK A01 T01411017  RH  033%=      5-min Rain = 0
KEN1 200459Z 20014KT 14/M02 A2978 RMK A01 T01411017  RH  033%=      5-min Rain = 0
KEN1 200500Z 20013KT 14/M02 A2978 RMK A01 T01411018  RH  033%=      5-min Rain = 0
KEN1 200501Z 19013KT 14/M02 A2978 RMK A01 T01421018  RH  033%=      5-min Rain = 0
KEN1 200502Z 19012KT 14/M02 A2978 RMK A01 T01421018  RH  033%=      5-min Rain = 0
KEN1 200503Z 19013KT 14/M02 A2978 RMK A01 T01411019  RH  033%=      5-min Rain = 0
KEN1 200504Z 19012KT 14/M02 A2978 RMK A01 T01421018  RH  033%=      5-min Rain = 0
KEN1 200505Z 18012KT 14/M02 A2978 RMK A01 T01411018  RH  033%=      5-min Rain = 0
KEN1 200506Z 18012KT 14/M02 A2978 RMK A01 T01391019  RH  034%=      5-min Rain = 0
KEN1 200507Z 18012KT 14/M02 A2978 RMK A01 T01381019  RH  034%=      5-min Rain = 0
KEN1 200508Z 18011KT 14/M02 A2978 RMK A01 T01371018  RH  034%=      5-min Rain = 0
KEN1 200509Z 18011KT 14/M02 A2978 RMK A01 T01361019  RH  034%=      5-min Rain = 0
KEN1 200510Z 18010KT 13/M02 A2978 RMK A01 T01341019  RH  035%=      5-min Rain = 0
KEN1 200511Z 18010KT 13/M02 A2978 RMK A01 T01331018  RH  035%=      5-min Rain = 0
KEN1 200512Z 18010KT 13/M02 A2978 RMK A01 T01321018  RH  035%=      5-min Rain = 0
KEN1 200513Z 18010KT 13/M02 A2978 RMK A01 T01321018  RH  035%=      5-min Rain = 0
KEN1 200514Z 18010KT 13/M02 A2978 RMK A01 T01311018  RH  035%=      5-min Rain = 0
KEN1 200515Z 18010KT 13/M02 A2978 RMK A01 T01311019  RH  035%=      5-min Rain = 0
KEN1 200516Z 18010KT 13/M02 A2978 RMK A01 T01301018  RH  036%=      5-min Rain = 0
KEN1 200517Z 18009KT 13/M02 A2978 RMK A01 T01291019  RH  036%=      5-min Rain = 0
KEN1 200518Z 18009KT 13/M02 A2978 RMK A01 T01291019  RH  036%=      5-min Rain = 0
KEN1 200519Z 18008KT 13/M02 A2978 RMK A01 T01271019  RH  036%=      5-min Rain = 0
KEN1 200520Z 18007KT 13/M02 A2978 RMK A01 T01251019  RH  037%=      5-min Rain = 0
KEN1 200521Z 18007KT 12/M02 A2978 RMK A01 T01231019  RH  037%=      5-min Rain = 0
KEN1 200522Z 18007KT 12/M02 A2978 RMK A01 T01221019  RH  038%=      5-min Rain = 0
KEN1 200523Z 18007KT 12/M02 A2978 RMK A01 T01211019  RH  038%=      5-min Rain = 0
KEN1 200524Z 18007KT 12/M02 A2978 RMK A01 T01201019  RH  038%=      5-min Rain = 0
KEN1 200525Z 18006KT 12/M02 A2978 RMK A01 T01191019  RH  038%=      5-min Rain = 0
KEN1 200526Z 18007KT 12/M02 A2978 RMK A01 T01181019  RH  039%=      5-min Rain = 0
KEN1 200527Z 18007KT 12/M02 A2978 RMK A01 T01161019  RH  039%=      5-min Rain = 0
KEN1 200528Z 18007KT 12/M02 A2978 RMK A01 T01151019  RH  039%=      5-min Rain = 0
KEN1 200529Z 17007KT 11/M02 A2978 RMK A01 T01141019  RH  040%=      5-min Rain = 0
KEN1 200530Z 17008KT 11/M02 A2978 RMK A01 T01131019  RH  040%=      5-min Rain = 0
KEN1 200531Z 17008KT 11/M02 A2978 RMK A01 T01131019  RH  040%=      5-min Rain = 0
KEN1 200532Z 17009KT 11/M02 A2978 RMK A01 T01131019  RH  040%=      5-min Rain = 0
KEN1 200533Z 18009KT 11/M02 A2978 RMK A01 T01131018  RH  040%=      5-min Rain = 0
KEN1 200534Z 18009KT 11/M02 A2978 RMK A01 T01131019  RH  040%=      5-min Rain = 0
KEN1 200535Z 18009KT 11/M02 A2978 RMK A01 T01141019  RH  039%=      5-min Rain = 0
KEN1 200536Z 18009KT 12/M02 A2978 RMK A01 T01181019  RH  038%=      5-min Rain = 0
KEN1 200537Z 18008KT 12/M02 A2978 RMK A01 T01191019  RH  038%=      5-min Rain = 0
KEN1 200538Z 19008KT 12/M02 A2978 RMK A01 T01181019  RH  038%=      5-min Rain = 0
KEN1 200539Z 19008KT 12/M02 A2978 RMK A01 T01191019  RH  038%=      5-min Rain = 0
KEN1 200540Z 18007KT 12/M02 A2978 RMK A01 T01181020  RH  038%=      5-min Rain = 0
KEN1 200541Z 17007KT 12/M02 A2978 RMK A01 T01171019  RH  039%=      5-min Rain = 0
KEN1 200542Z 17007KT 12/M02 A2978 RMK A01 T01151019  RH  039%=      5-min Rain = 0
KEN1 200543Z 18007KT 11/M02 A2978 RMK A01 T01141019  RH  039%=      5-min Rain = 0
KEN1 200544Z 19007KT 11/M02 A2978 RMK A01 T01131020  RH  040%=      5-min Rain = 0
KEN1 200545Z 20007KT 11/M02 A2978 RMK A01 T01131020  RH  040%=      5-min Rain = 0
KEN1 200546Z 20008KT 11/M02 A2978 RMK A01 T01141020  RH  039%=      5-min Rain = 0
KEN1 200547Z 19007KT 12/M02 A2978 RMK A01 T01171020  RH  038%=      5-min Rain = 0
KEN1 200548Z 18006KT 12/M02 A2978 RMK A01 T01191019  RH  038%=      5-min Rain = 0
KEN1 200549Z 18006KT 12/M02 A2978 RMK A01 T01171020  RH  039%=      5-min Rain = 0
KEN1 200550Z 18006KT 11/M02 A2978 RMK A01 T01141020  RH  039%=      5-min Rain = 0
KEN1 200551Z 19005KT 11/M02 A2978 RMK A01 T01131020  RH  039%=      5-min Rain = 0
KEN1 200552Z 19005KT 11/M02 A2978 RMK A01 T01131020  RH  040%=      5-min Rain = 0
KEN1 200553Z 19006KT 11/M02 A2977 RMK A01 T01131020  RH  040%=      5-min Rain = 0
KEN1 200554Z 19006KT 11/M02 A2977 RMK A01 T01121020  RH  040%=      5-min Rain = 0
KEN1 200555Z 19007KT 11/M02 A2978 RMK A01 T01121020  RH  040%=      5-min Rain = 0
KEN1 200556Z 19008KT 11/M02 A2978 RMK A01 T01121020  RH  040%=      5-min Rain = 0
KEN1 200557Z 20009KT 11/M02 A2978 RMK A01 T01121020  RH  040%=      5-min Rain = 0
KEN1 200558Z 19009KT 12/M02 A2977 RMK A01 T01171020  RH  038%=      5-min Rain = 0
KEN1 200559Z 17006KT 12/M02 A2978 RMK A01 T01231019  RH  037%=      5-min Rain = 0

Page generated in 0.1185 seconds.